UAE333 RPLL-OMDB
Flight info
| Callsign | UAE333 |
|---|---|
| Flight time | N/A |
| Altitude | 34000 |
| Route | SIRCA2R SIRCA L628 ARESI/K0926F340 L628 PCA G474 ANINA/N0499F340 G474 VEMKO M633 TANEK L301 URKOK/N0491F360 L301 RASKI/N0481F380 L301 RAGMA N571 VUSET A454 PASOV B540 KUPMA/N0450F240 B540 MIVEK P574 IMPED |
| Aircraft | B77W/H-SDE1E2E3FGHIJ2J3J4J5M1RWXY/LB1D1 |
Departure
| Time | N/A |
|---|---|
| Airport | Ninoy Aquino International Airport (RPLL) |
Arrival
| Time | 2026-04-21 17:45 |
|---|---|
| Airport | Dubai International Airport (OMDB) |
| Time | Latitude | Longitude | Altitude | Speed | Heading |
|---|---|---|---|---|---|
| 2026-04-21 09:39 | 14.30392 | 118.23372 | 33867 ft | 482 kts | 265° |
| 2026-04-21 09:39 | 14.30125 | 118.20008 | 33864 ft | 482 kts | 265° |
| 2026-04-21 09:40 | 14.29574 | 118.13078 | 33868 ft | 482 kts | 265° |
| 2026-04-21 09:40 | 14.29024 | 118.06193 | 33866 ft | 482 kts | 265° |
| 2026-04-21 09:41 | 14.28476 | 117.99340 | 33866 ft | 482 kts | 265° |
| 2026-04-21 09:41 | 14.27828 | 117.91276 | 33951 ft | 485 kts | 265° |
| 2026-04-21 09:42 | 14.27548 | 117.87809 | 34179 ft | 484 kts | 265° |
| 2026-04-21 09:42 | 14.27274 | 117.84406 | 34457 ft | 482 kts | 265° |
| 2026-04-21 09:42 | 14.26996 | 117.80971 | 34743 ft | 480 kts | 265° |
| 2026-04-21 09:42 | 14.26717 | 117.77535 | 35025 ft | 478 kts | 265° |
| 2026-04-21 09:43 | 14.26440 | 117.74122 | 35292 ft | 476 kts | 265° |
| 2026-04-21 09:43 | 14.26162 | 117.70708 | 35527 ft | 476 kts | 265° |
| 2026-04-21 09:43 | 14.25885 | 117.67306 | 35660 ft | 477 kts | 265° |
| 2026-04-21 09:43 | 14.25609 | 117.63929 | 35749 ft | 479 kts | 265° |
| 2026-04-21 09:44 | 14.25045 | 117.57028 | 35853 ft | 484 kts | 265° |
| 2026-04-21 09:44 | 14.24476 | 117.50101 | 35862 ft | 484 kts | 265° |
| 2026-04-21 09:45 | 14.23909 | 117.43225 | 35869 ft | 483 kts | 265° |
| 2026-04-21 09:45 | 14.23337 | 117.36308 | 35868 ft | 483 kts | 265° |
| 2026-04-21 09:46 | 14.22764 | 117.29404 | 35867 ft | 483 kts | 265° |
| 2026-04-21 09:46 | 14.22193 | 117.22549 | 35868 ft | 482 kts | 265° |
| 2026-04-21 09:47 | 14.21616 | 117.15641 | 35868 ft | 482 kts | 265° |
| 2026-04-21 09:47 | 14.21041 | 117.08786 | 35868 ft | 482 kts | 265° |
| 2026-04-21 09:48 | 14.20461 | 117.01890 | 35870 ft | 482 kts | 265° |
| 2026-04-21 09:48 | 14.19879 | 116.95000 | 35868 ft | 483 kts | 265° |
| 2026-04-21 09:49 | 14.19295 | 116.88111 | 35869 ft | 483 kts | 265° |
| 2026-04-21 09:49 | 14.18705 | 116.81223 | 35869 ft | 483 kts | 265° |
| 2026-04-21 09:50 | 14.18311 | 116.76644 | 35868 ft | 483 kts | 265° |
| 2026-04-21 09:50 | 14.17519 | 116.67438 | 35869 ft | 484 kts | 265° |
| 2026-04-21 09:51 | 14.16923 | 116.60543 | 35868 ft | 484 kts | 265° |
| 2026-04-21 09:51 | 14.16325 | 116.53640 | 35869 ft | 484 kts | 265° |
| 2026-04-21 09:52 | 14.15727 | 116.46766 | 35869 ft | 484 kts | 265° |
| 2026-04-21 09:52 | 14.15124 | 116.39859 | 35869 ft | 484 kts | 265° |
| 2026-04-21 09:53 | 14.14518 | 116.32937 | 35871 ft | 484 kts | 265° |
| 2026-04-21 09:53 | 14.13911 | 116.26025 | 35872 ft | 484 kts | 265° |
| 2026-04-21 09:54 | 14.13405 | 116.20277 | 35870 ft | 484 kts | 265° |
| 2026-04-21 09:54 | 14.12695 | 116.12243 | 35870 ft | 484 kts | 265° |
| 2026-04-21 09:55 | 14.12082 | 116.05330 | 35870 ft | 484 kts | 265° |
| 2026-04-21 09:55 | 14.11569 | 115.99563 | 35869 ft | 484 kts | 265° |
| 2026-04-21 09:56 | 14.10951 | 115.92637 | 35870 ft | 485 kts | 265° |
| 2026-04-21 09:56 | 14.10335 | 115.85755 | 35872 ft | 485 kts | 265° |
| 2026-04-21 09:57 | 14.09713 | 115.78831 | 35871 ft | 485 kts | 265° |
| 2026-04-21 09:57 | 14.09088 | 115.71898 | 35871 ft | 485 kts | 265° |
| 2026-04-21 09:58 | 14.08465 | 115.65005 | 35872 ft | 485 kts | 265° |
| 2026-04-21 09:58 | 14.07836 | 115.58070 | 35872 ft | 486 kts | 265° |
| 2026-04-21 09:59 | 14.07205 | 115.51131 | 35872 ft | 486 kts | 265° |
| 2026-04-21 09:59 | 14.06576 | 115.44247 | 35871 ft | 486 kts | 265° |
| 2026-04-21 10:00 | 14.05943 | 115.37324 | 35872 ft | 485 kts | 265° |
| 2026-04-21 10:00 | 14.05306 | 115.30397 | 35868 ft | 485 kts | 265° |
| 2026-04-21 10:01 | 14.04672 | 115.23507 | 35871 ft | 485 kts | 265° |
| 2026-04-21 10:01 | 14.04032 | 115.16583 | 35870 ft | 485 kts | 265° |
| 2026-04-21 10:02 | 14.03072 | 115.06237 | 35871 ft | 485 kts | 265° |
| 2026-04-21 10:03 | 14.02427 | 114.99316 | 35871 ft | 485 kts | 265° |
| 2026-04-21 10:03 | 14.01783 | 114.92424 | 35873 ft | 485 kts | 265° |
| 2026-04-21 10:04 | 14.01135 | 114.85496 | 35898 ft | 485 kts | 264° |
| 2026-04-21 10:04 | 14.00485 | 114.78588 | 35879 ft | 484 kts | 264° |
| 2026-04-21 10:05 | 13.99836 | 114.71708 | 35871 ft | 484 kts | 265° |
| 2026-04-21 10:05 | 13.99182 | 114.64791 | 35877 ft | 484 kts | 265° |
| 2026-04-21 10:06 | 13.98530 | 114.57915 | 35881 ft | 485 kts | 265° |
| 2026-04-21 10:06 | 13.97871 | 114.50990 | 35881 ft | 486 kts | 265° |
| 2026-04-21 10:07 | 13.97270 | 114.44043 | 35881 ft | 487 kts | 269° |
| 2026-04-21 10:07 | 13.97284 | 114.37074 | 35885 ft | 487 kts | 271° |
| 2026-04-21 10:08 | 13.97385 | 114.30122 | 35881 ft | 488 kts | 271° |
| 2026-04-21 10:08 | 13.97461 | 114.23131 | 35879 ft | 489 kts | 271° |
| 2026-04-21 10:09 | 13.97513 | 114.16123 | 35883 ft | 489 kts | 271° |
| 2026-04-21 10:09 | 13.97557 | 114.09108 | 35882 ft | 489 kts | 271° |
| 2026-04-21 10:10 | 13.97599 | 114.02098 | 35884 ft | 489 kts | 271° |
| 2026-04-21 10:10 | 13.97641 | 113.95096 | 35881 ft | 489 kts | 271° |
| 2026-04-21 10:11 | 13.97680 | 113.88143 | 35878 ft | 488 kts | 271° |
| 2026-04-21 10:11 | 13.97718 | 113.81141 | 35880 ft | 488 kts | 271° |
| 2026-04-21 10:12 | 13.97753 | 113.74157 | 35881 ft | 487 kts | 271° |
| 2026-04-21 10:12 | 13.97787 | 113.67211 | 35875 ft | 487 kts | 270° |
| 2026-04-21 10:13 | 13.97818 | 113.60295 | 35878 ft | 487 kts | 270° |
| 2026-04-21 10:13 | 13.97848 | 113.53314 | 35878 ft | 486 kts | 270° |
| 2026-04-21 10:14 | 13.97875 | 113.46386 | 35879 ft | 486 kts | 270° |
| 2026-04-21 10:14 | 13.97901 | 113.39413 | 35878 ft | 486 kts | 270° |
| 2026-04-21 10:15 | 13.97925 | 113.32453 | 35878 ft | 486 kts | 270° |
| 2026-04-21 10:15 | 13.97946 | 113.25522 | 35879 ft | 486 kts | 270° |
| 2026-04-21 10:16 | 13.97966 | 113.18551 | 35879 ft | 486 kts | 270° |
| 2026-04-21 10:16 | 13.97984 | 113.11629 | 35881 ft | 486 kts | 270° |
| 2026-04-21 10:17 | 13.98000 | 113.04659 | 35878 ft | 486 kts | 270° |
| 2026-04-21 10:17 | 13.98012 | 112.97729 | 35880 ft | 486 kts | 270° |
| 2026-04-21 10:18 | 13.98021 | 112.90769 | 35880 ft | 486 kts | 270° |
| 2026-04-21 10:18 | 13.98029 | 112.83802 | 35880 ft | 486 kts | 270° |
| 2026-04-21 10:19 | 13.98035 | 112.76822 | 35882 ft | 486 kts | 270° |
| 2026-04-21 10:19 | 13.98039 | 112.69858 | 35882 ft | 486 kts | 270° |
| 2026-04-21 10:20 | 13.98040 | 112.62938 | 35883 ft | 486 kts | 270° |
| 2026-04-21 10:20 | 13.98040 | 112.55972 | 35880 ft | 485 kts | 270° |
| 2026-04-21 10:21 | 13.98038 | 112.49018 | 35880 ft | 485 kts | 270° |
| 2026-04-21 10:21 | 13.98035 | 112.42107 | 35879 ft | 485 kts | 270° |
| 2026-04-21 10:22 | 13.98029 | 112.35162 | 35877 ft | 484 kts | 270° |
| 2026-04-21 10:22 | 13.98021 | 112.28217 | 35876 ft | 484 kts | 270° |
| 2026-04-21 10:23 | 13.98011 | 112.21278 | 35878 ft | 484 kts | 270° |
| 2026-04-21 10:23 | 13.97999 | 112.14391 | 35877 ft | 484 kts | 270° |
| 2026-04-21 10:24 | 13.97985 | 112.07467 | 35874 ft | 483 kts | 270° |
| 2026-04-21 10:24 | 13.97969 | 112.00520 | 35874 ft | 483 kts | 270° |
| 2026-04-21 10:25 | 13.97952 | 111.93635 | 35874 ft | 483 kts | 270° |
| 2026-04-21 10:25 | 13.97932 | 111.86701 | 35872 ft | 483 kts | 270° |
| 2026-04-21 10:26 | 13.97911 | 111.79822 | 35871 ft | 482 kts | 270° |
| 2026-04-21 10:26 | 13.97887 | 111.72895 | 35868 ft | 483 kts | 271° |
| 2026-04-21 10:27 | 13.97862 | 111.66014 | 35877 ft | 483 kts | 271° |
| 2026-04-21 10:27 | 13.97834 | 111.59080 | 35875 ft | 484 kts | 271° |
| 2026-04-21 10:28 | 13.97805 | 111.52145 | 35872 ft | 485 kts | 271° |
| 2026-04-21 10:28 | 13.97774 | 111.45190 | 35872 ft | 485 kts | 271° |
| 2026-04-21 10:29 | 13.97743 | 111.38267 | 35871 ft | 486 kts | 271° |
| 2026-04-21 10:29 | 13.97709 | 111.31305 | 35870 ft | 486 kts | 271° |
| 2026-04-21 10:30 | 13.97673 | 111.24343 | 35871 ft | 486 kts | 271° |
| 2026-04-21 10:30 | 13.97635 | 111.17379 | 35868 ft | 486 kts | 271° |
| 2026-04-21 10:31 | 13.97596 | 111.10473 | 35867 ft | 485 kts | 271° |
| 2026-04-21 10:31 | 13.97554 | 111.03509 | 35872 ft | 485 kts | 270° |
| 2026-04-21 10:32 | 13.97511 | 110.96569 | 35863 ft | 483 kts | 270° |
| 2026-04-21 10:32 | 13.97465 | 110.89692 | 35864 ft | 481 kts | 270° |
| 2026-04-21 10:33 | 13.97418 | 110.82801 | 35859 ft | 480 kts | 270° |
| 2026-04-21 10:33 | 13.97369 | 110.75931 | 35863 ft | 478 kts | 270° |
| 2026-04-21 10:34 | 13.97319 | 110.69091 | 35863 ft | 477 kts | 270° |
| 2026-04-21 10:34 | 13.97266 | 110.62247 | 35865 ft | 477 kts | 270° |
| 2026-04-21 10:35 | 13.97212 | 110.55464 | 35862 ft | 477 kts | 270° |
| 2026-04-21 10:35 | 13.97156 | 110.48619 | 35865 ft | 478 kts | 270° |
| 2026-04-21 10:36 | 13.97097 | 110.41766 | 35867 ft | 478 kts | 270° |
| 2026-04-21 10:36 | 13.97037 | 110.34901 | 35860 ft | 479 kts | 270° |
| 2026-04-21 10:37 | 13.96975 | 110.28080 | 35862 ft | 479 kts | 270° |
| 2026-04-21 10:37 | 13.96911 | 110.21200 | 35857 ft | 480 kts | 270° |
| 2026-04-21 10:38 | 13.96844 | 110.14321 | 35852 ft | 480 kts | 270° |
| 2026-04-21 10:38 | 13.96776 | 110.07475 | 35854 ft | 479 kts | 270° |
| 2026-04-21 10:39 | 13.96707 | 110.00620 | 35855 ft | 479 kts | 270° |
| 2026-04-21 10:39 | 13.96647 | 109.93754 | 35851 ft | 479 kts | 271° |
| 2026-04-21 10:40 | 13.96597 | 109.86936 | 35853 ft | 478 kts | 271° |
| 2026-04-21 10:40 | 13.96544 | 109.80071 | 35849 ft | 478 kts | 271° |
| 2026-04-21 10:41 | 13.96488 | 109.73221 | 35849 ft | 478 kts | 271° |
| 2026-04-21 10:41 | 13.96439 | 109.67520 | 35851 ft | 478 kts | 271° |
| 2026-04-21 10:42 | 13.96368 | 109.59553 | 35846 ft | 478 kts | 271° |
| 2026-04-21 10:42 | 13.96306 | 109.52710 | 35842 ft | 478 kts | 271° |
| 2026-04-21 10:43 | 13.96232 | 109.45892 | 35843 ft | 478 kts | 271° |
| 2026-04-21 10:43 | 13.96147 | 109.39041 | 35847 ft | 479 kts | 271° |
| 2026-04-21 10:44 | 13.96075 | 109.33328 | 35849 ft | 479 kts | 271° |
| 2026-04-21 10:44 | 13.95989 | 109.26468 | 35844 ft | 479 kts | 271° |
| 2026-04-21 10:45 | 13.95902 | 109.19591 | 35843 ft | 479 kts | 271° |
| 2026-04-21 10:45 | 13.95813 | 109.12765 | 35847 ft | 479 kts | 271° |
| 2026-04-21 10:46 | 13.95722 | 109.05884 | 35846 ft | 479 kts | 271° |
| 2026-04-21 10:46 | 13.95896 | 108.99080 | 35848 ft | 478 kts | 274° |
| 2026-04-21 10:47 | 13.96268 | 108.92225 | 35847 ft | 478 kts | 275° |
| 2026-04-21 10:47 | 13.96637 | 108.85384 | 35854 ft | 478 kts | 275° |
| 2026-04-21 10:48 | 13.96981 | 108.78568 | 35853 ft | 478 kts | 274° |
| 2026-04-21 10:48 | 13.97316 | 108.71707 | 35853 ft | 478 kts | 274° |
| 2026-04-21 10:49 | 13.97647 | 108.64901 | 35852 ft | 478 kts | 274° |
| 2026-04-21 10:49 | 13.97978 | 108.58055 | 35854 ft | 478 kts | 274° |
| 2026-04-21 10:50 | 13.98305 | 108.51234 | 35855 ft | 478 kts | 274° |
| 2026-04-21 10:50 | 13.98633 | 108.44398 | 35856 ft | 478 kts | 274° |
| 2026-04-21 10:51 | 13.98959 | 108.37555 | 35853 ft | 477 kts | 274° |
| 2026-04-21 10:51 | 13.99281 | 108.30749 | 35858 ft | 478 kts | 274° |
| 2026-04-21 10:52 | 13.99603 | 108.23907 | 35844 ft | 478 kts | 274° |
| 2026-04-21 10:52 | 13.99923 | 108.17071 | 35847 ft | 477 kts | 274° |
| 2026-04-21 10:53 | 14.00238 | 108.10271 | 35843 ft | 477 kts | 274° |
| 2026-04-21 10:53 | 14.00552 | 108.03435 | 35840 ft | 477 kts | 274° |
| 2026-04-21 10:54 | 14.00424 | 107.96598 | 35846 ft | 477 kts | 269° |
| 2026-04-21 10:54 | 14.00110 | 107.89760 | 35837 ft | 478 kts | 269° |
| 2026-04-21 10:55 | 13.99841 | 107.82949 | 35832 ft | 478 kts | 270° |
| 2026-04-21 10:55 | 13.99591 | 107.76101 | 35834 ft | 478 kts | 270° |
| 2026-04-21 10:56 | 13.99341 | 107.69294 | 35827 ft | 478 kts | 270° |
| 2026-04-21 10:56 | 13.99086 | 107.62440 | 35819 ft | 478 kts | 270° |
| 2026-04-21 10:57 | 13.98830 | 107.55631 | 35817 ft | 478 kts | 270° |
| 2026-04-21 10:57 | 13.98571 | 107.48796 | 35812 ft | 478 kts | 270° |
| 2026-04-21 10:58 | 13.98289 | 107.41950 | 35816 ft | 478 kts | 268° |
| 2026-04-21 10:58 | 13.97355 | 107.35145 | 35825 ft | 479 kts | 263° |
| 2026-04-21 10:59 | 13.96261 | 107.28403 | 35815 ft | 480 kts | 263° |
| 2026-04-21 10:59 | 13.95209 | 107.21607 | 35810 ft | 480 kts | 262° |
| 2026-04-21 11:00 | 13.93017 | 107.15103 | 35818 ft | 485 kts | 244° |
| 2026-04-21 11:00 | 13.89135 | 107.09436 | 35816 ft | 489 kts | 232° |
| 2026-04-21 11:01 | 13.84718 | 107.04087 | 35810 ft | 490 kts | 232° |
| 2026-04-21 11:01 | 13.80432 | 106.98664 | 35805 ft | 489 kts | 237° |
| 2026-04-21 11:02 | 13.77337 | 106.92487 | 35815 ft | 484 kts | 253° |
| 2026-04-21 11:02 | 13.76432 | 106.89159 | 35800 ft | 481 kts | 262° |
| 2026-04-21 11:02 | 13.75389 | 106.82411 | 35800 ft | 480 kts | 264° |
| 2026-04-21 11:03 | 13.74386 | 106.75611 | 35803 ft | 481 kts | 263° |
| 2026-04-21 11:03 | 13.73331 | 106.68813 | 35792 ft | 481 kts | 263° |
| 2026-04-21 11:04 | 13.72249 | 106.62051 | 35799 ft | 481 kts | 263° |
| 2026-04-21 11:04 | 13.71157 | 106.55256 | 35794 ft | 480 kts | 263° |
| 2026-04-21 11:05 | 13.70067 | 106.48472 | 35794 ft | 480 kts | 263° |
| 2026-04-21 11:05 | 13.68983 | 106.41735 | 35794 ft | 479 kts | 263° |
| 2026-04-21 11:06 | 13.67891 | 106.34954 | 35792 ft | 479 kts | 263° |
| 2026-04-21 11:06 | 13.66799 | 106.28182 | 35788 ft | 479 kts | 263° |
| 2026-04-21 11:07 | 13.65712 | 106.21457 | 35786 ft | 479 kts | 263° |
| 2026-04-21 11:07 | 13.64615 | 106.14678 | 35785 ft | 479 kts | 263° |
| 2026-04-21 11:08 | 13.64119 | 106.07929 | 35778 ft | 475 kts | 274° |
| 2026-04-21 11:08 | 13.64379 | 106.01144 | 35784 ft | 475 kts | 275° |
| 2026-04-21 11:09 | 13.64648 | 105.94376 | 35783 ft | 475 kts | 274° |
| 2026-04-21 11:09 | 13.64884 | 105.87572 | 35786 ft | 476 kts | 274° |
| 2026-04-21 11:10 | 13.65102 | 105.80789 | 35786 ft | 476 kts | 274° |
| 2026-04-21 11:10 | 13.65316 | 105.73970 | 35785 ft | 477 kts | 274° |
| 2026-04-21 11:11 | 13.65530 | 105.67144 | 35785 ft | 477 kts | 274° |
| 2026-04-21 11:11 | 13.65743 | 105.60317 | 35787 ft | 477 kts | 274° |
| 2026-04-21 11:12 | 13.65953 | 105.53515 | 35785 ft | 477 kts | 274° |
| 2026-04-21 11:12 | 13.66162 | 105.46712 | 35781 ft | 477 kts | 274° |
| 2026-04-21 11:13 | 13.66369 | 105.39895 | 35782 ft | 477 kts | 274° |
| 2026-04-21 11:13 | 13.66575 | 105.33067 | 35788 ft | 477 kts | 274° |
| 2026-04-21 11:14 | 13.66779 | 105.26256 | 35782 ft | 476 kts | 274° |
| 2026-04-21 11:14 | 13.66979 | 105.19482 | 35788 ft | 476 kts | 274° |
| 2026-04-21 11:15 | 13.67179 | 105.12652 | 35790 ft | 476 kts | 274° |
| 2026-04-21 11:15 | 13.67376 | 105.05877 | 35781 ft | 476 kts | 274° |
| 2026-04-21 11:16 | 13.67568 | 104.99069 | 35788 ft | 476 kts | 273° |
| 2026-04-21 11:16 | 13.67757 | 104.92285 | 35785 ft | 476 kts | 273° |
| 2026-04-21 11:17 | 13.67946 | 104.85466 | 35796 ft | 476 kts | 273° |
| 2026-04-21 11:17 | 13.68132 | 104.78680 | 35783 ft | 477 kts | 273° |
| 2026-04-21 11:18 | 13.68317 | 104.71862 | 35784 ft | 477 kts | 273° |
| 2026-04-21 11:18 | 13.68501 | 104.65038 | 35786 ft | 477 kts | 274° |
| 2026-04-21 11:19 | 13.68682 | 104.58224 | 35792 ft | 477 kts | 274° |
| 2026-04-21 11:19 | 13.68861 | 104.51440 | 35787 ft | 476 kts | 274° |
| 2026-04-21 11:20 | 13.69038 | 104.44622 | 35790 ft | 476 kts | 274° |
| 2026-04-21 11:20 | 13.69214 | 104.37802 | 35786 ft | 476 kts | 274° |
| 2026-04-21 11:21 | 13.69388 | 104.30988 | 35787 ft | 476 kts | 274° |
| 2026-04-21 11:21 | 13.69559 | 104.24230 | 35791 ft | 476 kts | 274° |
| 2026-04-21 11:22 | 13.69729 | 104.17417 | 35789 ft | 476 kts | 274° |
| 2026-04-21 11:22 | 13.69897 | 104.10600 | 35790 ft | 476 kts | 274° |
| 2026-04-21 11:23 | 13.70063 | 104.03816 | 35792 ft | 476 kts | 274° |
| 2026-04-21 11:23 | 13.70228 | 103.96995 | 35787 ft | 476 kts | 274° |
| 2026-04-21 11:24 | 13.70391 | 103.90174 | 35790 ft | 477 kts | 274° |
| 2026-04-21 11:24 | 13.70552 | 103.83356 | 35792 ft | 477 kts | 274° |
| 2026-04-21 11:25 | 13.70710 | 103.76561 | 35789 ft | 477 kts | 274° |
| 2026-04-21 11:25 | 13.70866 | 103.69729 | 35788 ft | 477 kts | 273° |
| 2026-04-21 11:26 | 13.71018 | 103.62946 | 35785 ft | 477 kts | 273° |
| 2026-04-21 11:26 | 13.71169 | 103.56119 | 35786 ft | 477 kts | 273° |
| 2026-04-21 11:27 | 13.71318 | 103.49292 | 35787 ft | 477 kts | 273° |
| 2026-04-21 11:27 | 13.71466 | 103.42474 | 35790 ft | 478 kts | 273° |
| 2026-04-21 11:28 | 13.71612 | 103.35639 | 35790 ft | 479 kts | 273° |
| 2026-04-21 11:28 | 13.71756 | 103.28784 | 35785 ft | 479 kts | 273° |
| 2026-04-21 11:29 | 13.71899 | 103.21917 | 35787 ft | 480 kts | 273° |
| 2026-04-21 11:29 | 13.72039 | 103.15074 | 35793 ft | 481 kts | 273° |
| 2026-04-21 11:30 | 13.72178 | 103.08190 | 35798 ft | 481 kts | 273° |
| 2026-04-21 11:30 | 13.72316 | 103.01297 | 35794 ft | 482 kts | 273° |
| 2026-04-21 11:31 | 13.72451 | 102.94420 | 35796 ft | 483 kts | 273° |
| 2026-04-21 11:31 | 13.72586 | 102.87503 | 35798 ft | 483 kts | 273° |
| 2026-04-21 11:32 | 13.72696 | 102.81763 | 35798 ft | 483 kts | 273° |
| 2026-04-21 11:32 | 13.72848 | 102.73715 | 35798 ft | 483 kts | 273° |
| 2026-04-21 11:33 | 13.72955 | 102.67954 | 35800 ft | 483 kts | 273° |
| 2026-04-21 11:33 | 13.73085 | 102.61035 | 35803 ft | 483 kts | 273° |
| 2026-04-21 11:34 | 13.73221 | 102.54134 | 35803 ft | 482 kts | 273° |
| 2026-04-21 11:34 | 13.73354 | 102.47269 | 35801 ft | 482 kts | 273° |
| 2026-04-21 11:35 | 13.73485 | 102.40367 | 35801 ft | 482 kts | 273° |
| 2026-04-21 11:35 | 13.73614 | 102.33471 | 35801 ft | 481 kts | 273° |
| 2026-04-21 11:36 | 13.73740 | 102.26622 | 35807 ft | 481 kts | 273° |
| 2026-04-21 11:36 | 13.73861 | 102.19732 | 35806 ft | 481 kts | 272° |
| 2026-04-21 11:37 | 13.73965 | 102.12872 | 35807 ft | 481 kts | 272° |
| 2026-04-21 11:37 | 13.74067 | 102.05986 | 35805 ft | 481 kts | 272° |
| 2026-04-21 11:38 | 13.74170 | 101.99099 | 35801 ft | 480 kts | 272° |
| 2026-04-21 11:38 | 13.74270 | 101.92254 | 35799 ft | 480 kts | 272° |
| 2026-04-21 11:39 | 13.74369 | 101.85369 | 35800 ft | 480 kts | 272° |
| 2026-04-21 11:39 | 13.74469 | 101.78520 | 35797 ft | 480 kts | 272° |
| 2026-04-21 11:40 | 13.74574 | 101.71676 | 35794 ft | 480 kts | 272° |
| 2026-04-21 11:40 | 13.74677 | 101.64801 | 35791 ft | 480 kts | 272° |
| 2026-04-21 11:41 | 13.74778 | 101.57914 | 35787 ft | 480 kts | 272° |
| 2026-04-21 11:41 | 13.74877 | 101.51037 | 35790 ft | 480 kts | 272° |
| 2026-04-21 11:42 | 13.74973 | 101.44195 | 35787 ft | 480 kts | 272° |
| 2026-04-21 11:42 | 13.75068 | 101.37313 | 35785 ft | 480 kts | 272° |
| 2026-04-21 11:43 | 13.75160 | 101.30478 | 35782 ft | 480 kts | 272° |
| 2026-04-21 11:43 | 13.75250 | 101.23629 | 35778 ft | 481 kts | 272° |
| 2026-04-21 11:44 | 13.75339 | 101.16752 | 35782 ft | 481 kts | 272° |
| 2026-04-21 11:44 | 13.75427 | 101.09842 | 35779 ft | 482 kts | 272° |
| 2026-04-21 11:45 | 13.75512 | 101.02947 | 35775 ft | 482 kts | 272° |
| 2026-04-21 11:45 | 13.75595 | 100.96077 | 35775 ft | 482 kts | 272° |
| 2026-04-21 11:46 | 13.75677 | 100.89162 | 35775 ft | 482 kts | 272° |
| 2026-04-21 11:46 | 13.75741 | 100.82246 | 35773 ft | 482 kts | 272° |
| 2026-04-21 11:47 | 13.75783 | 100.75396 | 35775 ft | 482 kts | 272° |
| 2026-04-21 11:47 | 13.76423 | 100.68554 | 35776 ft | 479 kts | 281° |
| 2026-04-21 11:48 | 13.77614 | 100.61820 | 35772 ft | 479 kts | 282° |
| 2026-04-21 11:48 | 13.78814 | 100.55081 | 35773 ft | 478 kts | 281° |
| 2026-04-21 11:49 | 13.79973 | 100.48377 | 35769 ft | 478 kts | 281° |
| 2026-04-21 11:49 | 13.81122 | 100.41624 | 35765 ft | 478 kts | 281° |
| 2026-04-21 11:50 | 13.82267 | 100.34860 | 35762 ft | 478 kts | 281° |
| 2026-04-21 11:50 | 13.83401 | 100.28162 | 35753 ft | 478 kts | 281° |
| 2026-04-21 11:51 | 13.84543 | 100.21404 | 35751 ft | 478 kts | 281° |
| 2026-04-21 11:51 | 13.85683 | 100.14660 | 35752 ft | 478 kts | 281° |
| 2026-04-21 11:52 | 13.86813 | 100.07957 | 35753 ft | 478 kts | 281° |
| 2026-04-21 11:52 | 13.87947 | 100.01213 | 35747 ft | 477 kts | 281° |
| 2026-04-21 11:53 | 13.89080 | 99.94469 | 35750 ft | 477 kts | 281° |
| 2026-04-21 11:53 | 13.90203 | 99.87774 | 35750 ft | 477 kts | 281° |
| 2026-04-21 11:54 | 13.91331 | 99.81034 | 35752 ft | 477 kts | 281° |
| 2026-04-21 11:54 | 13.92458 | 99.74291 | 35746 ft | 477 kts | 280° |
| 2026-04-21 11:55 | 13.93582 | 99.67551 | 35748 ft | 477 kts | 280° |
| 2026-04-21 11:55 | 13.94706 | 99.60807 | 35749 ft | 477 kts | 280° |
| 2026-04-21 11:56 | 13.95821 | 99.54102 | 35746 ft | 477 kts | 280° |
| 2026-04-21 11:56 | 13.96939 | 99.47359 | 35751 ft | 477 kts | 280° |
| 2026-04-21 11:57 | 13.98056 | 99.40615 | 35754 ft | 478 kts | 280° |
| 2026-04-21 11:57 | 13.99173 | 99.33863 | 35755 ft | 478 kts | 280° |
| 2026-04-21 11:58 | 14.00283 | 99.27139 | 35761 ft | 479 kts | 280° |
| 2026-04-21 11:58 | 14.01401 | 99.20353 | 35763 ft | 479 kts | 280° |
| 2026-04-21 11:59 | 14.02507 | 99.13625 | 35766 ft | 479 kts | 280° |
| 2026-04-21 11:59 | 14.03622 | 99.06838 | 35776 ft | 479 kts | 280° |
| 2026-04-21 12:00 | 14.04733 | 99.00058 | 35780 ft | 479 kts | 279° |
| 2026-04-21 12:00 | 14.05531 | 98.93293 | 35793 ft | 479 kts | 274° |
| 2026-04-21 12:01 | 14.05947 | 98.86446 | 35797 ft | 479 kts | 274° |
| 2026-04-21 12:01 | 14.06356 | 98.79589 | 35805 ft | 479 kts | 274° |
| 2026-04-21 12:02 | 14.07012 | 98.69303 | 35814 ft | 479 kts | 274° |
| 2026-04-21 12:03 | 14.07452 | 98.62489 | 35817 ft | 479 kts | 274° |
| 2026-04-21 12:03 | 14.07892 | 98.55641 | 35816 ft | 479 kts | 274° |
| 2026-04-21 12:04 | 14.08329 | 98.48789 | 35814 ft | 478 kts | 274° |
| 2026-04-21 12:04 | 14.08763 | 98.41956 | 35816 ft | 478 kts | 274° |
| 2026-04-21 12:05 | 14.09193 | 98.35146 | 35824 ft | 478 kts | 274° |
| 2026-04-21 12:05 | 14.09624 | 98.28302 | 35809 ft | 478 kts | 274° |
| 2026-04-21 12:06 | 14.10112 | 98.21497 | 35805 ft | 478 kts | 277° |
| 2026-04-21 12:06 | 14.11484 | 98.14789 | 35817 ft | 478 kts | 284° |
| 2026-04-21 12:07 | 14.13199 | 98.08156 | 35809 ft | 479 kts | 284° |
| 2026-04-21 12:07 | 14.14899 | 98.01538 | 35810 ft | 479 kts | 284° |
| 2026-04-21 12:08 | 14.16580 | 97.94874 | 35811 ft | 479 kts | 284° |
| 2026-04-21 12:08 | 14.18245 | 97.88212 | 35809 ft | 479 kts | 284° |
| 2026-04-21 12:09 | 14.19897 | 97.81586 | 35809 ft | 480 kts | 284° |
| 2026-04-21 12:09 | 14.21558 | 97.74920 | 35809 ft | 480 kts | 284° |
| 2026-04-21 12:10 | 14.23218 | 97.68251 | 35807 ft | 480 kts | 283° |
| 2026-04-21 12:10 | 14.24876 | 97.61585 | 35806 ft | 480 kts | 283° |
| 2026-04-21 12:11 | 14.26533 | 97.54913 | 35806 ft | 480 kts | 283° |
| 2026-04-21 12:11 | 14.28187 | 97.48246 | 35810 ft | 480 kts | 283° |
| 2026-04-21 12:12 | 14.29833 | 97.41602 | 35807 ft | 480 kts | 283° |
| 2026-04-21 12:12 | 14.31483 | 97.34931 | 35811 ft | 480 kts | 283° |
| 2026-04-21 12:13 | 14.33131 | 97.28263 | 35813 ft | 480 kts | 283° |
| 2026-04-21 12:13 | 14.34770 | 97.21623 | 35811 ft | 480 kts | 283° |
| 2026-04-21 12:14 | 14.36419 | 97.14933 | 35814 ft | 480 kts | 283° |
| 2026-04-21 12:14 | 14.38064 | 97.08249 | 35814 ft | 480 kts | 283° |
| 2026-04-21 12:15 | 14.39708 | 97.01562 | 35811 ft | 481 kts | 283° |
| 2026-04-21 12:15 | 14.41341 | 96.94913 | 35814 ft | 481 kts | 283° |
| 2026-04-21 12:16 | 14.42987 | 96.88200 | 35814 ft | 481 kts | 283° |
| 2026-04-21 12:16 | 14.44620 | 96.81534 | 35813 ft | 481 kts | 283° |
| 2026-04-21 12:17 | 14.46260 | 96.74825 | 35816 ft | 481 kts | 283° |
| 2026-04-21 12:17 | 14.47884 | 96.68178 | 35816 ft | 481 kts | 283° |
| 2026-04-21 12:18 | 14.49521 | 96.61469 | 35818 ft | 482 kts | 283° |
| 2026-04-21 12:18 | 14.51149 | 96.54785 | 35818 ft | 482 kts | 283° |
| 2026-04-21 12:19 | 14.52785 | 96.48063 | 35817 ft | 482 kts | 283° |
| 2026-04-21 12:19 | 14.54419 | 96.41338 | 35818 ft | 482 kts | 283° |
| 2026-04-21 12:20 | 14.55772 | 96.35761 | 35818 ft | 482 kts | 283° |
| 2026-04-21 12:20 | 14.57390 | 96.29085 | 35817 ft | 482 kts | 283° |
| 2026-04-21 12:21 | 14.59016 | 96.22370 | 35816 ft | 482 kts | 283° |
| 2026-04-21 12:21 | 14.60641 | 96.15650 | 35819 ft | 481 kts | 283° |
| 2026-04-21 12:22 | 14.62263 | 96.08929 | 35820 ft | 481 kts | 283° |
| 2026-04-21 12:22 | 14.63875 | 96.02246 | 35822 ft | 481 kts | 283° |
| 2026-04-21 12:23 | 14.65495 | 95.95517 | 35819 ft | 481 kts | 283° |
| 2026-04-21 12:23 | 14.67102 | 95.88834 | 35819 ft | 481 kts | 283° |
| 2026-04-21 12:24 | 14.68715 | 95.82118 | 35819 ft | 481 kts | 283° |
| 2026-04-21 12:24 | 14.70319 | 95.75428 | 35820 ft | 481 kts | 283° |
| 2026-04-21 12:25 | 14.71930 | 95.68704 | 35817 ft | 481 kts | 283° |
| 2026-04-21 12:25 | 14.73539 | 95.61975 | 35823 ft | 482 kts | 283° |
| 2026-04-21 12:26 | 14.75139 | 95.55276 | 35823 ft | 482 kts | 283° |
| 2026-04-21 12:26 | 14.76744 | 95.48551 | 35820 ft | 482 kts | 283° |
| 2026-04-21 12:27 | 14.78338 | 95.41858 | 35826 ft | 482 kts | 283° |
| 2026-04-21 12:27 | 14.79942 | 95.35115 | 35825 ft | 482 kts | 282° |
| 2026-04-21 12:28 | 14.81535 | 95.28408 | 35825 ft | 482 kts | 282° |
| 2026-04-21 12:28 | 14.83134 | 95.21670 | 35825 ft | 482 kts | 282° |
| 2026-04-21 12:29 | 14.84735 | 95.14912 | 35827 ft | 483 kts | 282° |
| 2026-04-21 12:29 | 14.86323 | 95.08197 | 35828 ft | 483 kts | 282° |
| 2026-04-21 12:30 | 14.87919 | 95.01443 | 35828 ft | 483 kts | 282° |
| 2026-04-21 12:30 | 14.89503 | 94.94728 | 35826 ft | 483 kts | 282° |
| 2026-04-21 12:31 | 14.91096 | 94.87966 | 35825 ft | 483 kts | 282° |
| 2026-04-21 12:31 | 14.92686 | 94.81210 | 35827 ft | 483 kts | 282° |
| 2026-04-21 12:32 | 14.94264 | 94.74494 | 35828 ft | 483 kts | 282° |
| 2026-04-21 12:32 | 14.95849 | 94.67736 | 35829 ft | 482 kts | 282° |
| 2026-04-21 12:33 | 14.97431 | 94.60985 | 35827 ft | 482 kts | 282° |
| 2026-04-21 12:33 | 14.98998 | 94.54288 | 35828 ft | 482 kts | 282° |
| 2026-04-21 12:34 | 15.00573 | 94.47548 | 35831 ft | 481 kts | 282° |
| 2026-04-21 12:34 | 15.02145 | 94.40807 | 35831 ft | 481 kts | 282° |
| 2026-04-21 12:35 | 15.03705 | 94.34114 | 35826 ft | 481 kts | 282° |
| 2026-04-21 12:35 | 15.05272 | 94.27379 | 35827 ft | 481 kts | 282° |
| 2026-04-21 12:36 | 15.06834 | 94.20652 | 35830 ft | 481 kts | 282° |
| 2026-04-21 12:36 | 15.08395 | 94.13923 | 35834 ft | 481 kts | 282° |
| 2026-04-21 12:37 | 15.09946 | 94.07229 | 35833 ft | 480 kts | 282° |
| 2026-04-21 12:37 | 15.11505 | 94.00492 | 35834 ft | 480 kts | 282° |
| 2026-04-21 12:38 | 15.13059 | 93.93763 | 35833 ft | 480 kts | 282° |
| 2026-04-21 12:38 | 15.14614 | 93.87023 | 35833 ft | 480 kts | 282° |
| 2026-04-21 12:39 | 15.16155 | 93.80333 | 35831 ft | 480 kts | 282° |
| 2026-04-21 12:39 | 15.17706 | 93.73588 | 35830 ft | 480 kts | 282° |
| 2026-04-21 12:40 | 15.19243 | 93.66897 | 35830 ft | 480 kts | 282° |
| 2026-04-21 12:40 | 15.20790 | 93.60154 | 35835 ft | 480 kts | 282° |
| 2026-04-21 12:41 | 15.22323 | 93.53460 | 35831 ft | 480 kts | 282° |
| 2026-04-21 12:41 | 15.23861 | 93.46736 | 35833 ft | 480 kts | 282° |
| 2026-04-21 12:42 | 15.25397 | 93.40010 | 35833 ft | 479 kts | 282° |
| 2026-04-21 12:42 | 15.26934 | 93.33267 | 35832 ft | 479 kts | 282° |
| 2026-04-21 12:43 | 15.28458 | 93.26577 | 35835 ft | 479 kts | 282° |
| 2026-04-21 12:43 | 15.29987 | 93.19849 | 35836 ft | 479 kts | 282° |
| 2026-04-21 12:44 | 15.31514 | 93.13126 | 35832 ft | 479 kts | 282° |
| 2026-04-21 12:44 | 15.33030 | 93.06440 | 35838 ft | 479 kts | 282° |
| 2026-04-21 12:45 | 15.34553 | 92.99709 | 35836 ft | 479 kts | 282° |
| 2026-04-21 12:45 | 15.36074 | 92.92980 | 35835 ft | 478 kts | 282° |
| 2026-04-21 12:46 | 15.37590 | 92.86265 | 35836 ft | 478 kts | 282° |
| 2026-04-21 12:46 | 15.39097 | 92.79578 | 35836 ft | 478 kts | 282° |
| 2026-04-21 12:47 | 15.40609 | 92.72856 | 35836 ft | 478 kts | 282° |
| 2026-04-21 12:47 | 15.42108 | 92.66187 | 35835 ft | 478 kts | 282° |
| 2026-04-21 12:48 | 15.43650 | 92.59488 | 35837 ft | 478 kts | 283° |
| 2026-04-21 12:48 | 15.45314 | 92.52799 | 35836 ft | 477 kts | 283° |
| 2026-04-21 12:49 | 15.46973 | 92.46175 | 35834 ft | 477 kts | 283° |
| 2026-04-21 12:49 | 15.48626 | 92.39496 | 35832 ft | 477 kts | 283° |
| 2026-04-21 12:50 | 15.50266 | 92.32821 | 35834 ft | 477 kts | 283° |
| 2026-04-21 12:50 | 15.51892 | 92.26195 | 35834 ft | 477 kts | 283° |
| 2026-04-21 12:51 | 15.53530 | 92.19513 | 35835 ft | 477 kts | 282° |
| 2026-04-21 12:51 | 15.55167 | 92.12825 | 35829 ft | 477 kts | 282° |
| 2026-04-21 12:52 | 15.56797 | 92.06157 | 35834 ft | 477 kts | 282° |
| 2026-04-21 12:52 | 15.58419 | 91.99516 | 35835 ft | 477 kts | 282° |
| 2026-04-21 12:53 | 15.60034 | 91.92847 | 35829 ft | 477 kts | 282° |
| 2026-04-21 12:53 | 15.61642 | 91.86164 | 35835 ft | 477 kts | 282° |
| 2026-04-21 12:54 | 15.63248 | 91.79486 | 35833 ft | 477 kts | 282° |
| 2026-04-21 12:54 | 15.64844 | 91.72844 | 35831 ft | 476 kts | 282° |
| 2026-04-21 12:55 | 15.66449 | 91.66157 | 35834 ft | 476 kts | 282° |
| 2026-04-21 12:55 | 15.68051 | 91.59472 | 35833 ft | 476 kts | 282° |
| 2026-04-21 12:56 | 15.69639 | 91.52838 | 35828 ft | 476 kts | 282° |
| 2026-04-21 12:56 | 15.71237 | 91.46153 | 35830 ft | 476 kts | 282° |
| 2026-04-21 12:57 | 15.72819 | 91.39524 | 35831 ft | 475 kts | 282° |
| 2026-04-21 12:57 | 15.74408 | 91.32856 | 35829 ft | 475 kts | 282° |
| 2026-04-21 12:58 | 15.75993 | 91.26198 | 35831 ft | 475 kts | 282° |
| 2026-04-21 12:58 | 15.77575 | 91.19540 | 35827 ft | 474 kts | 281° |
| 2026-04-21 12:59 | 15.79148 | 91.12910 | 35836 ft | 474 kts | 281° |
| 2026-04-21 12:59 | 15.80729 | 91.06241 | 35835 ft | 474 kts | 281° |
| 2026-04-21 13:00 | 15.82293 | 90.99630 | 35835 ft | 474 kts | 281° |
| 2026-04-21 13:00 | 15.83866 | 90.92970 | 35835 ft | 474 kts | 281° |
| 2026-04-21 13:01 | 15.85437 | 90.86311 | 35835 ft | 474 kts | 281° |
| 2026-04-21 13:01 | 15.86995 | 90.79701 | 35835 ft | 474 kts | 281° |
| 2026-04-21 13:02 | 15.88558 | 90.73055 | 35836 ft | 474 kts | 281° |
| 2026-04-21 13:02 | 15.90908 | 90.63051 | 35836 ft | 474 kts | 281° |
| 2026-04-21 13:03 | 15.92455 | 90.56450 | 35837 ft | 473 kts | 281° |
| 2026-04-21 13:03 | 15.94013 | 90.49794 | 35833 ft | 473 kts | 281° |
| 2026-04-21 13:04 | 15.95571 | 90.43125 | 35859 ft | 474 kts | 281° |
| 2026-04-21 13:04 | 15.97117 | 90.36501 | 35852 ft | 474 kts | 281° |
| 2026-04-21 13:05 | 15.98671 | 90.29832 | 35841 ft | 474 kts | 281° |
| 2026-04-21 13:05 | 16.00225 | 90.23151 | 35838 ft | 474 kts | 281° |
| 2026-04-21 13:06 | 16.01766 | 90.16523 | 35840 ft | 474 kts | 281° |
| 2026-04-21 13:06 | 16.03354 | 90.09861 | 35839 ft | 474 kts | 281° |
| 2026-04-21 13:07 | 16.04690 | 90.04346 | 35842 ft | 473 kts | 281° |
| 2026-04-21 13:07 | 16.06293 | 89.97707 | 35842 ft | 473 kts | 281° |
| 2026-04-21 13:08 | 16.07887 | 89.91067 | 35839 ft | 472 kts | 281° |
| 2026-04-21 13:08 | 16.09467 | 89.84470 | 35840 ft | 472 kts | 281° |
| 2026-04-21 13:09 | 16.11057 | 89.77821 | 35840 ft | 472 kts | 281° |
| 2026-04-21 13:09 | 16.12638 | 89.71197 | 35840 ft | 471 kts | 281° |
| 2026-04-21 13:10 | 16.14208 | 89.64614 | 35842 ft | 471 kts | 281° |
| 2026-04-21 13:10 | 16.15789 | 89.57975 | 35841 ft | 471 kts | 280° |
| 2026-04-21 13:11 | 16.17363 | 89.51353 | 35839 ft | 471 kts | 280° |
| 2026-04-21 13:11 | 16.18926 | 89.44767 | 35843 ft | 471 kts | 280° |
| 2026-04-21 13:12 | 16.20496 | 89.38145 | 35841 ft | 471 kts | 280° |
| 2026-04-21 13:12 | 16.22064 | 89.31522 | 35841 ft | 471 kts | 280° |
| 2026-04-21 13:13 | 16.23629 | 89.24900 | 35843 ft | 471 kts | 280° |
| 2026-04-21 13:13 | 16.25181 | 89.18321 | 35841 ft | 470 kts | 280° |
| 2026-04-21 13:14 | 16.26742 | 89.11698 | 35841 ft | 470 kts | 280° |
| 2026-04-21 13:14 | 16.28317 | 89.05075 | 35842 ft | 470 kts | 280° |
| 2026-04-21 13:15 | 16.29922 | 88.98512 | 35844 ft | 470 kts | 281° |
| 2026-04-21 13:15 | 16.31541 | 88.91906 | 35842 ft | 470 kts | 281° |
| 2026-04-21 13:16 | 16.33152 | 88.85295 | 35842 ft | 470 kts | 280° |
| 2026-04-21 13:16 | 16.34750 | 88.78715 | 35840 ft | 470 kts | 280° |
| 2026-04-21 13:17 | 16.36350 | 88.72114 | 35833 ft | 470 kts | 280° |
| 2026-04-21 13:17 | 16.37943 | 88.65531 | 35840 ft | 470 kts | 280° |
| 2026-04-21 13:18 | 16.39542 | 88.58912 | 35840 ft | 470 kts | 280° |
| 2026-04-21 13:18 | 16.41136 | 88.52309 | 35841 ft | 470 kts | 280° |
| 2026-04-21 13:19 | 16.42729 | 88.45700 | 35838 ft | 470 kts | 280° |
| 2026-04-21 13:19 | 16.44319 | 88.39093 | 35838 ft | 470 kts | 280° |
| 2026-04-21 13:20 | 16.45895 | 88.32534 | 35836 ft | 470 kts | 280° |
| 2026-04-21 13:20 | 16.47485 | 88.25907 | 35836 ft | 470 kts | 280° |
| 2026-04-21 13:21 | 16.49070 | 88.19294 | 35839 ft | 470 kts | 280° |
| 2026-04-21 13:21 | 16.50641 | 88.12728 | 35841 ft | 470 kts | 280° |
| 2026-04-21 13:22 | 16.52223 | 88.06103 | 35836 ft | 470 kts | 280° |
| 2026-04-21 13:22 | 16.53794 | 87.99519 | 35840 ft | 470 kts | 280° |
| 2026-04-21 13:23 | 16.55368 | 87.92909 | 35840 ft | 470 kts | 280° |
| 2026-04-21 13:23 | 16.56942 | 87.86291 | 35843 ft | 470 kts | 280° |
| 2026-04-21 13:24 | 16.58517 | 87.79660 | 35837 ft | 470 kts | 279° |
| 2026-04-21 13:24 | 16.60088 | 87.73033 | 35833 ft | 470 kts | 279° |
| 2026-04-21 13:25 | 16.61647 | 87.66450 | 35839 ft | 470 kts | 279° |
| 2026-04-21 13:25 | 16.63213 | 87.59827 | 35841 ft | 470 kts | 279° |
| 2026-04-21 13:26 | 16.64767 | 87.53241 | 35837 ft | 470 kts | 279° |
| 2026-04-21 13:26 | 16.66330 | 87.46611 | 35836 ft | 470 kts | 279° |
| 2026-04-21 13:27 | 16.67892 | 87.39975 | 35843 ft | 469 kts | 279° |
| 2026-04-21 13:27 | 16.69438 | 87.33393 | 35833 ft | 469 kts | 279° |
| 2026-04-21 13:28 | 16.70989 | 87.26783 | 35834 ft | 469 kts | 279° |
| 2026-04-21 13:28 | 16.72527 | 87.20217 | 35835 ft | 468 kts | 279° |
| 2026-04-21 13:29 | 16.74076 | 87.13604 | 35834 ft | 468 kts | 279° |
| 2026-04-21 13:29 | 16.75647 | 87.07000 | 35836 ft | 468 kts | 279° |
| 2026-04-21 13:30 | 16.77212 | 87.00445 | 35837 ft | 468 kts | 279° |
| 2026-04-21 13:30 | 16.78785 | 86.93836 | 35833 ft | 467 kts | 279° |
| 2026-04-21 13:31 | 16.80340 | 86.87282 | 35835 ft | 467 kts | 279° |
| 2026-04-21 13:31 | 16.81901 | 86.80689 | 35835 ft | 467 kts | 279° |
| 2026-04-21 13:32 | 16.83449 | 86.74139 | 35832 ft | 467 kts | 279° |
| 2026-04-21 13:32 | 16.85006 | 86.67546 | 35834 ft | 467 kts | 279° |
| 2026-04-21 13:33 | 16.86558 | 86.60960 | 35830 ft | 467 kts | 279° |
| 2026-04-21 13:33 | 16.88109 | 86.54371 | 35837 ft | 466 kts | 279° |
| 2026-04-21 13:34 | 16.89647 | 86.47829 | 35832 ft | 466 kts | 279° |
| 2026-04-21 13:34 | 16.91190 | 86.41251 | 35829 ft | 466 kts | 279° |
| 2026-04-21 13:35 | 16.92731 | 86.34676 | 35831 ft | 466 kts | 279° |
| 2026-04-21 13:35 | 16.94269 | 86.28100 | 35832 ft | 465 kts | 279° |
| 2026-04-21 13:36 | 16.95797 | 86.21558 | 35831 ft | 465 kts | 279° |
| 2026-04-21 13:36 | 16.97330 | 86.14988 | 35831 ft | 465 kts | 279° |
| 2026-04-21 13:37 | 16.98851 | 86.08455 | 35831 ft | 465 kts | 279° |
| 2026-04-21 13:37 | 17.00380 | 86.01879 | 35828 ft | 465 kts | 279° |
| 2026-04-21 13:38 | 17.01906 | 85.95305 | 35825 ft | 465 kts | 279° |
| 2026-04-21 13:38 | 17.03422 | 85.88765 | 35827 ft | 465 kts | 279° |
| 2026-04-21 13:39 | 17.04944 | 85.82189 | 35828 ft | 465 kts | 279° |
| 2026-04-21 13:39 | 17.06455 | 85.75650 | 35827 ft | 465 kts | 279° |
| 2026-04-21 13:40 | 17.07971 | 85.69081 | 35828 ft | 465 kts | 279° |
| 2026-04-21 13:40 | 17.09491 | 85.62482 | 35829 ft | 465 kts | 279° |
| 2026-04-21 13:41 | 17.10995 | 85.55941 | 35828 ft | 465 kts | 279° |
| 2026-04-21 13:41 | 17.12506 | 85.49360 | 35829 ft | 465 kts | 279° |
| 2026-04-21 13:42 | 17.14015 | 85.42778 | 35826 ft | 465 kts | 279° |
| 2026-04-21 13:42 | 17.15515 | 85.36228 | 35824 ft | 465 kts | 279° |
| 2026-04-21 13:43 | 17.17011 | 85.29688 | 35824 ft | 465 kts | 279° |
| 2026-04-21 13:43 | 17.18566 | 85.23105 | 35825 ft | 465 kts | 279° |
| 2026-04-21 13:44 | 17.20135 | 85.16542 | 35826 ft | 465 kts | 279° |
| 2026-04-21 13:44 | 17.21697 | 85.09978 | 35827 ft | 464 kts | 279° |
| 2026-04-21 13:45 | 17.23247 | 85.03435 | 35822 ft | 464 kts | 279° |
| 2026-04-21 13:45 | 17.24788 | 84.96911 | 35823 ft | 464 kts | 279° |
| 2026-04-21 13:46 | 17.26334 | 84.90355 | 35823 ft | 463 kts | 279° |
| 2026-04-21 13:46 | 17.27881 | 84.83788 | 35825 ft | 463 kts | 279° |
| 2026-04-21 13:47 | 17.29414 | 84.77269 | 35821 ft | 463 kts | 279° |
| 2026-04-21 13:47 | 17.30950 | 84.70728 | 35819 ft | 462 kts | 279° |
| 2026-04-21 13:48 | 17.32473 | 84.64233 | 35819 ft | 461 kts | 279° |
| 2026-04-21 13:48 | 17.34001 | 84.57703 | 35820 ft | 461 kts | 279° |
| 2026-04-21 13:49 | 17.35526 | 84.51177 | 35822 ft | 460 kts | 279° |
| 2026-04-21 13:49 | 17.37083 | 84.44701 | 35817 ft | 460 kts | 279° |
| 2026-04-21 13:50 | 17.38690 | 84.38235 | 35820 ft | 460 kts | 279° |
| 2026-04-21 13:50 | 17.40300 | 84.31736 | 35811 ft | 460 kts | 279° |
| 2026-04-21 13:51 | 17.41897 | 84.25244 | 35810 ft | 460 kts | 279° |
| 2026-04-21 13:51 | 17.43490 | 84.18750 | 35812 ft | 460 kts | 279° |
| 2026-04-21 13:52 | 17.45071 | 84.12291 | 35811 ft | 460 kts | 279° |
| 2026-04-21 13:52 | 17.46661 | 84.05790 | 35809 ft | 460 kts | 279° |
| 2026-04-21 13:53 | 17.48251 | 83.99277 | 35816 ft | 461 kts | 279° |
| 2026-04-21 13:53 | 17.49830 | 83.92803 | 35810 ft | 461 kts | 279° |
| 2026-04-21 13:54 | 17.51456 | 83.86304 | 35808 ft | 462 kts | 279° |
| 2026-04-21 13:54 | 17.53123 | 83.79799 | 35816 ft | 462 kts | 279° |
| 2026-04-21 13:55 | 17.54505 | 83.74391 | 35813 ft | 462 kts | 279° |
| 2026-04-21 13:55 | 17.56159 | 83.67882 | 35815 ft | 461 kts | 279° |
| 2026-04-21 13:56 | 17.57806 | 83.61383 | 35815 ft | 461 kts | 279° |
| 2026-04-21 13:56 | 17.59442 | 83.54913 | 35815 ft | 461 kts | 279° |
| 2026-04-21 13:57 | 17.61085 | 83.48404 | 35820 ft | 460 kts | 279° |
| 2026-04-21 13:57 | 17.62722 | 83.41914 | 35824 ft | 460 kts | 279° |
| 2026-04-21 13:58 | 17.64355 | 83.35428 | 35828 ft | 460 kts | 279° |
| 2026-04-21 13:58 | 17.65976 | 83.28983 | 35836 ft | 459 kts | 279° |
| 2026-04-21 13:59 | 17.67750 | 83.22509 | 35831 ft | 462 kts | 282° |
| 2026-04-21 13:59 | 17.69809 | 83.16151 | 35832 ft | 463 kts | 283° |
| 2026-04-21 14:00 | 17.71903 | 83.09770 | 35825 ft | 463 kts | 283° |
| 2026-04-21 14:00 | 17.73982 | 83.03365 | 35825 ft | 462 kts | 283° |
| 2026-04-21 14:01 | 17.76035 | 82.96996 | 35824 ft | 462 kts | 282° |
| 2026-04-21 14:01 | 17.78089 | 82.90602 | 35837 ft | 461 kts | 282° |
| 2026-04-21 14:02 | 17.80141 | 82.84209 | 35837 ft | 462 kts | 282° |
| 2026-04-21 14:03 | 17.83208 | 82.74639 | 35850 ft | 462 kts | 283° |
| 2026-04-21 14:03 | 17.85243 | 82.68281 | 35854 ft | 462 kts | 282° |
| 2026-04-21 14:04 | 17.87280 | 82.61916 | 35891 ft | 462 kts | 282° |
| 2026-04-21 14:04 | 17.89324 | 82.55508 | 35870 ft | 462 kts | 282° |
| 2026-04-21 14:05 | 17.91362 | 82.49115 | 35888 ft | 462 kts | 282° |
| 2026-04-21 14:05 | 17.93405 | 82.42703 | 35889 ft | 462 kts | 282° |
| 2026-04-21 14:06 | 17.95442 | 82.36296 | 35909 ft | 462 kts | 282° |
| 2026-04-21 14:06 | 17.97466 | 82.29928 | 35900 ft | 462 kts | 282° |
| 2026-04-21 14:07 | 17.99501 | 82.23514 | 35910 ft | 462 kts | 282° |
| 2026-04-21 14:07 | 18.01534 | 82.17095 | 35909 ft | 463 kts | 282° |
| 2026-04-21 14:08 | 18.03554 | 82.10710 | 35897 ft | 463 kts | 282° |
| 2026-04-21 14:08 | 18.05584 | 82.04290 | 35880 ft | 462 kts | 282° |
| 2026-04-21 14:09 | 18.07616 | 81.97876 | 35877 ft | 462 kts | 282° |
| 2026-04-21 14:09 | 18.09700 | 81.91511 | 35859 ft | 462 kts | 282° |
| 2026-04-21 14:10 | 18.11808 | 81.85128 | 35866 ft | 461 kts | 282° |
| 2026-04-21 14:10 | 18.13906 | 81.78744 | 35849 ft | 460 kts | 282° |
| 2026-04-21 14:11 | 18.15981 | 81.72399 | 35842 ft | 460 kts | 282° |
| 2026-04-21 14:11 | 18.18057 | 81.66037 | 35841 ft | 459 kts | 282° |
| 2026-04-21 14:12 | 18.20119 | 81.59711 | 35838 ft | 459 kts | 282° |
| 2026-04-21 14:12 | 18.22191 | 81.53351 | 35836 ft | 459 kts | 282° |
| 2026-04-21 14:13 | 18.24250 | 81.47020 | 35831 ft | 459 kts | 282° |
| 2026-04-21 14:13 | 18.26316 | 81.40663 | 35831 ft | 458 kts | 282° |
| 2026-04-21 14:14 | 18.28378 | 81.34306 | 35840 ft | 458 kts | 282° |
| 2026-04-21 14:14 | 18.30428 | 81.27978 | 35815 ft | 458 kts | 282° |
| 2026-04-21 14:15 | 18.32487 | 81.21619 | 35831 ft | 458 kts | 282° |
| 2026-04-21 14:15 | 18.34530 | 81.15298 | 35827 ft | 459 kts | 282° |
| 2026-04-21 14:16 | 18.36587 | 81.08925 | 35830 ft | 459 kts | 282° |
| 2026-04-21 14:16 | 18.38639 | 81.02561 | 35822 ft | 459 kts | 282° |
| 2026-04-21 14:17 | 18.40680 | 80.96223 | 35825 ft | 459 kts | 282° |
| 2026-04-21 14:17 | 18.42728 | 80.89854 | 35815 ft | 459 kts | 282° |
| 2026-04-21 14:18 | 18.44775 | 80.83483 | 35823 ft | 458 kts | 282° |
| 2026-04-21 14:18 | 18.46804 | 80.77157 | 35815 ft | 458 kts | 282° |
| 2026-04-21 14:19 | 18.48844 | 80.70790 | 35834 ft | 458 kts | 282° |
| 2026-04-21 14:19 | 18.50892 | 80.64387 | 35816 ft | 460 kts | 282° |
| 2026-04-21 14:20 | 18.52919 | 80.58044 | 35810 ft | 459 kts | 281° |
| 2026-04-21 14:20 | 18.54885 | 80.51633 | 35812 ft | 458 kts | 280° |
| 2026-04-21 14:21 | 18.56782 | 80.45258 | 35808 ft | 457 kts | 280° |
| 2026-04-21 14:21 | 18.58685 | 80.38861 | 35810 ft | 457 kts | 280° |
| 2026-04-21 14:22 | 18.60597 | 80.32460 | 35799 ft | 457 kts | 280° |
| 2026-04-21 14:22 | 18.62516 | 80.26044 | 35802 ft | 458 kts | 280° |
| 2026-04-21 14:23 | 18.64421 | 80.19672 | 35800 ft | 458 kts | 280° |
| 2026-04-21 14:23 | 18.66335 | 80.13257 | 35799 ft | 459 kts | 280° |
| 2026-04-21 14:24 | 18.68247 | 80.06839 | 35796 ft | 459 kts | 280° |
| 2026-04-21 14:24 | 18.70151 | 80.00440 | 35795 ft | 459 kts | 280° |
| 2026-04-21 14:25 | 18.72065 | 79.93997 | 35797 ft | 459 kts | 280° |
| 2026-04-21 14:25 | 18.73961 | 79.87606 | 35796 ft | 459 kts | 280° |
| 2026-04-21 14:26 | 18.75871 | 79.81162 | 35799 ft | 459 kts | 280° |
| 2026-04-21 14:26 | 18.77773 | 79.74732 | 35802 ft | 458 kts | 280° |
| 2026-04-21 14:27 | 18.79672 | 79.68308 | 35801 ft | 458 kts | 280° |
| 2026-04-21 14:27 | 18.81556 | 79.61923 | 35805 ft | 458 kts | 280° |
| 2026-04-21 14:28 | 18.83450 | 79.55495 | 35798 ft | 458 kts | 280° |
| 2026-04-21 14:28 | 18.85338 | 79.49075 | 35810 ft | 457 kts | 280° |
| 2026-04-21 14:29 | 18.87210 | 79.42704 | 35808 ft | 457 kts | 280° |
| 2026-04-21 14:29 | 18.89091 | 79.36294 | 35807 ft | 457 kts | 280° |
| 2026-04-21 14:30 | 18.90973 | 79.29876 | 35821 ft | 456 kts | 280° |
| 2026-04-21 14:30 | 18.92849 | 79.23461 | 35806 ft | 456 kts | 279° |
| 2026-04-21 14:31 | 18.94708 | 79.17099 | 35818 ft | 456 kts | 279° |
| 2026-04-21 14:31 | 18.96581 | 79.10684 | 35817 ft | 455 kts | 279° |
| 2026-04-21 14:32 | 18.98437 | 79.04313 | 35818 ft | 455 kts | 279° |
| 2026-04-21 14:32 | 19.00296 | 78.97923 | 35814 ft | 454 kts | 279° |
| 2026-04-21 14:33 | 19.02151 | 78.91540 | 35817 ft | 454 kts | 279° |
| 2026-04-21 14:33 | 19.03993 | 78.85192 | 35821 ft | 453 kts | 279° |
| 2026-04-21 14:34 | 19.05841 | 78.78815 | 35825 ft | 453 kts | 279° |
| 2026-04-21 14:34 | 19.07691 | 78.72422 | 35817 ft | 453 kts | 279° |
| 2026-04-21 14:35 | 19.09522 | 78.66084 | 35822 ft | 453 kts | 279° |
| 2026-04-21 14:35 | 19.11366 | 78.59691 | 35823 ft | 453 kts | 279° |
| 2026-04-21 14:36 | 19.13205 | 78.53308 | 35823 ft | 453 kts | 279° |
| 2026-04-21 14:36 | 19.15031 | 78.46963 | 35820 ft | 453 kts | 279° |
| 2026-04-21 14:37 | 19.16865 | 78.40577 | 35830 ft | 453 kts | 279° |
| 2026-04-21 14:37 | 19.18700 | 78.34181 | 35827 ft | 454 kts | 279° |
| 2026-04-21 14:38 | 19.20524 | 78.27816 | 35829 ft | 454 kts | 279° |
| 2026-04-21 14:38 | 19.22356 | 78.21410 | 35829 ft | 454 kts | 279° |
| 2026-04-21 14:39 | 19.24184 | 78.15014 | 35831 ft | 453 kts | 279° |
| 2026-04-21 14:39 | 19.25829 | 78.08628 | 35832 ft | 449 kts | 276° |
| 2026-04-21 14:40 | 19.27264 | 78.02194 | 35834 ft | 448 kts | 276° |
| 2026-04-21 14:40 | 19.28703 | 77.95799 | 35836 ft | 448 kts | 276° |
| 2026-04-21 14:41 | 19.30171 | 77.89369 | 35835 ft | 448 kts | 276° |
| 2026-04-21 14:41 | 19.31652 | 77.82955 | 35837 ft | 448 kts | 276° |
| 2026-04-21 14:42 | 19.33125 | 77.76575 | 35834 ft | 448 kts | 276° |
| 2026-04-21 14:42 | 19.34349 | 77.71253 | 35836 ft | 447 kts | 276° |
| 2026-04-21 14:43 | 19.35821 | 77.64835 | 35840 ft | 447 kts | 276° |
| 2026-04-21 14:43 | 19.37525 | 77.57394 | 35840 ft | 447 kts | 276° |
| 2026-04-21 14:44 | 19.38744 | 77.52063 | 35843 ft | 447 kts | 276° |
| 2026-04-21 14:44 | 19.40209 | 77.45643 | 35841 ft | 447 kts | 276° |
| 2026-04-21 14:45 | 19.41662 | 77.39269 | 35836 ft | 447 kts | 276° |
| 2026-04-21 14:45 | 19.43125 | 77.32839 | 35839 ft | 448 kts | 276° |
| 2026-04-21 14:46 | 19.44576 | 77.26451 | 35845 ft | 448 kts | 276° |
| 2026-04-21 14:46 | 19.46031 | 77.20019 | 35844 ft | 448 kts | 276° |
| 2026-04-21 14:47 | 19.47472 | 77.13626 | 35845 ft | 448 kts | 276° |
| 2026-04-21 14:47 | 19.48920 | 77.07198 | 35850 ft | 448 kts | 276° |
| 2026-04-21 14:48 | 19.50364 | 77.00771 | 35849 ft | 448 kts | 276° |
| 2026-04-21 14:48 | 19.51799 | 76.94376 | 35852 ft | 447 kts | 276° |
| 2026-04-21 14:49 | 19.53242 | 76.87935 | 35857 ft | 447 kts | 276° |
| 2026-04-21 14:49 | 19.54677 | 76.81525 | 35854 ft | 447 kts | 276° |
| 2026-04-21 14:50 | 19.56123 | 76.75150 | 35845 ft | 447 kts | 276° |
| 2026-04-21 14:50 | 19.57578 | 76.68750 | 35864 ft | 446 kts | 276° |
| 2026-04-21 14:51 | 19.59023 | 76.62376 | 35858 ft | 446 kts | 276° |
| 2026-04-21 14:51 | 19.60472 | 76.55968 | 35854 ft | 446 kts | 276° |
| 2026-04-21 14:52 | 19.61915 | 76.49565 | 35859 ft | 446 kts | 276° |
| 2026-04-21 14:52 | 19.63359 | 76.43148 | 35851 ft | 447 kts | 276° |
| 2026-04-21 14:53 | 19.64793 | 76.36768 | 35853 ft | 447 kts | 276° |
| 2026-04-21 14:53 | 19.66237 | 76.30330 | 35855 ft | 448 kts | 275° |
| 2026-04-21 14:54 | 19.67671 | 76.23928 | 35859 ft | 448 kts | 275° |
| 2026-04-21 14:54 | 19.69113 | 76.17478 | 35859 ft | 449 kts | 275° |
| 2026-04-21 14:55 | 19.70555 | 76.11014 | 35858 ft | 449 kts | 275° |
| 2026-04-21 14:55 | 19.71987 | 76.04588 | 35859 ft | 450 kts | 276° |
| 2026-04-21 14:56 | 19.73427 | 75.98110 | 35858 ft | 450 kts | 276° |
| 2026-04-21 14:56 | 19.74866 | 75.91629 | 35868 ft | 450 kts | 276° |
| 2026-04-21 14:57 | 19.76290 | 75.85198 | 35865 ft | 450 kts | 276° |
| 2026-04-21 14:57 | 19.77724 | 75.78714 | 35870 ft | 450 kts | 276° |
| 2026-04-21 14:58 | 19.79157 | 75.72225 | 35873 ft | 450 kts | 276° |
| 2026-04-21 14:58 | 19.80574 | 75.65794 | 35877 ft | 450 kts | 276° |
| 2026-04-21 14:59 | 19.82001 | 75.59306 | 35881 ft | 450 kts | 276° |
| 2026-04-21 14:59 | 19.83426 | 75.52816 | 35883 ft | 450 kts | 276° |
| 2026-04-21 15:00 | 19.84838 | 75.46372 | 35886 ft | 450 kts | 276° |
| 2026-04-21 15:00 | 19.86252 | 75.39895 | 35886 ft | 450 kts | 275° |
| 2026-04-21 15:01 | 19.87510 | 75.33385 | 35883 ft | 448 kts | 274° |
| 2026-04-21 15:01 | 19.88679 | 75.26911 | 35883 ft | 448 kts | 274° |
| 2026-04-21 15:02 | 19.89865 | 75.20393 | 35882 ft | 449 kts | 274° |
| 2026-04-21 15:02 | 19.91064 | 75.13881 | 35876 ft | 449 kts | 274° |
| 2026-04-21 15:03 | 19.92271 | 75.07353 | 35874 ft | 450 kts | 274° |
| 2026-04-21 15:03 | 19.93470 | 75.00857 | 35870 ft | 450 kts | 274° |
| 2026-04-21 15:04 | 19.94676 | 74.94312 | 35867 ft | 450 kts | 274° |
| 2026-04-21 15:04 | 19.95876 | 74.87776 | 35874 ft | 451 kts | 275° |
| 2026-04-21 15:05 | 19.97070 | 74.81260 | 35879 ft | 452 kts | 275° |
| 2026-04-21 15:05 | 19.98873 | 74.71392 | 35875 ft | 453 kts | 275° |
| 2026-04-21 15:06 | 20.00068 | 74.64836 | 35881 ft | 454 kts | 275° |
| 2026-04-21 15:06 | 20.01271 | 74.58220 | 35883 ft | 455 kts | 275° |
| 2026-04-21 15:07 | 20.02467 | 74.51632 | 35880 ft | 456 kts | 275° |
| 2026-04-21 15:07 | 20.03669 | 74.44992 | 35885 ft | 457 kts | 275° |
| 2026-04-21 15:08 | 20.04871 | 74.38343 | 35888 ft | 458 kts | 275° |
| 2026-04-21 15:08 | 20.06066 | 74.31713 | 35890 ft | 459 kts | 276° |
| 2026-04-21 15:09 | 20.07270 | 74.25020 | 35894 ft | 460 kts | 276° |
| 2026-04-21 15:09 | 20.08474 | 74.18311 | 35902 ft | 461 kts | 276° |
| 2026-04-21 15:10 | 20.09670 | 74.11632 | 35905 ft | 463 kts | 276° |
| 2026-04-21 15:10 | 20.10875 | 74.04888 | 35910 ft | 464 kts | 276° |
| 2026-04-21 15:11 | 20.12078 | 73.98138 | 35913 ft | 464 kts | 276° |
| 2026-04-21 15:11 | 20.13276 | 73.91403 | 35911 ft | 465 kts | 276° |
| 2026-04-21 15:12 | 20.14480 | 73.84617 | 35911 ft | 466 kts | 276° |
| 2026-04-21 15:12 | 20.15682 | 73.77826 | 35911 ft | 466 kts | 277° |
| 2026-04-21 15:13 | 20.16876 | 73.71066 | 35910 ft | 467 kts | 277° |
| 2026-04-21 15:13 | 20.18075 | 73.64264 | 35911 ft | 467 kts | 277° |
| 2026-04-21 15:14 | 20.19266 | 73.57491 | 35901 ft | 468 kts | 277° |
| 2026-04-21 15:14 | 20.20464 | 73.50661 | 35897 ft | 468 kts | 277° |
| 2026-04-21 15:15 | 20.21657 | 73.43843 | 35887 ft | 468 kts | 277° |
| 2026-04-21 15:15 | 20.22848 | 73.37015 | 35884 ft | 468 kts | 277° |
| 2026-04-21 15:16 | 20.24031 | 73.30228 | 35884 ft | 468 kts | 277° |
| 2026-04-21 15:16 | 20.25230 | 73.23395 | 35882 ft | 469 kts | 278° |
| 2026-04-21 15:17 | 20.26507 | 73.16577 | 35869 ft | 469 kts | 278° |
| 2026-04-21 15:17 | 20.27795 | 73.09798 | 35871 ft | 470 kts | 279° |
| 2026-04-21 15:18 | 20.29082 | 73.02962 | 35863 ft | 470 kts | 279° |
| 2026-04-21 15:18 | 20.30361 | 72.96116 | 35860 ft | 471 kts | 279° |
| 2026-04-21 15:19 | 20.31631 | 72.89290 | 35853 ft | 472 kts | 279° |
| 2026-04-21 15:19 | 20.32909 | 72.82405 | 35851 ft | 473 kts | 279° |
| 2026-04-21 15:20 | 20.34179 | 72.75554 | 35848 ft | 474 kts | 279° |
| 2026-04-21 15:20 | 20.35456 | 72.68645 | 35846 ft | 475 kts | 279° |
| 2026-04-21 15:21 | 20.36733 | 72.61724 | 35848 ft | 476 kts | 279° |
| 2026-04-21 15:21 | 20.38010 | 72.54783 | 35844 ft | 477 kts | 279° |
| 2026-04-21 15:22 | 20.39280 | 72.47869 | 35844 ft | 478 kts | 280° |
| 2026-04-21 15:22 | 20.40560 | 72.40884 | 35832 ft | 479 kts | 280° |
| 2026-04-21 15:23 | 20.41837 | 72.33897 | 35833 ft | 480 kts | 280° |
| 2026-04-21 15:23 | 20.43104 | 72.26948 | 35832 ft | 480 kts | 280° |
| 2026-04-21 15:24 | 20.44377 | 72.19945 | 35841 ft | 480 kts | 280° |
| 2026-04-21 15:24 | 20.45650 | 72.12932 | 35838 ft | 481 kts | 280° |
| 2026-04-21 15:25 | 20.46911 | 72.05967 | 35848 ft | 482 kts | 280° |
| 2026-04-21 15:25 | 20.48181 | 71.98939 | 35854 ft | 482 kts | 280° |
| 2026-04-21 15:26 | 20.49446 | 71.91893 | 35850 ft | 484 kts | 281° |
| 2026-04-21 15:26 | 20.50710 | 71.84836 | 35849 ft | 485 kts | 281° |
| 2026-04-21 15:27 | 20.51969 | 71.77791 | 35852 ft | 485 kts | 281° |
| 2026-04-21 15:27 | 20.53229 | 71.70730 | 35847 ft | 486 kts | 281° |
| 2026-04-21 15:28 | 20.54494 | 71.63623 | 35846 ft | 487 kts | 281° |
| 2026-04-21 15:28 | 20.55755 | 71.56514 | 35856 ft | 487 kts | 281° |
| 2026-04-21 15:29 | 20.57015 | 71.49395 | 35861 ft | 487 kts | 281° |
| 2026-04-21 15:29 | 20.58272 | 71.42280 | 35861 ft | 487 kts | 281° |
| 2026-04-21 15:30 | 20.59517 | 71.35210 | 35857 ft | 487 kts | 282° |
| 2026-04-21 15:30 | 20.60768 | 71.28089 | 35853 ft | 487 kts | 282° |
| 2026-04-21 15:31 | 20.62017 | 71.20969 | 35864 ft | 487 kts | 282° |
| 2026-04-21 15:31 | 20.62361 | 71.19011 | 35843 ft | 483 kts | 282° |
| 2026-04-21 15:32 | 20.63008 | 71.15319 | 35859 ft | 477 kts | 282° |
| 2026-04-21 15:32 | 20.64215 | 71.08387 | 35860 ft | 471 kts | 282° |
| 2026-04-21 15:33 | 20.65406 | 71.01539 | 35857 ft | 467 kts | 282° |
| 2026-04-21 15:33 | 20.66585 | 70.94754 | 35862 ft | 463 kts | 282° |
| 2026-04-21 15:34 | 20.67745 | 70.88056 | 35868 ft | 460 kts | 282° |
| 2026-04-21 15:34 | 20.68905 | 70.81349 | 35859 ft | 457 kts | 282° |
| 2026-04-21 15:35 | 20.70055 | 70.74681 | 35860 ft | 455 kts | 282° |
| 2026-04-21 15:35 | 20.71191 | 70.68075 | 35874 ft | 453 kts | 282° |
| 2026-04-21 15:36 | 20.72324 | 70.61471 | 35878 ft | 451 kts | 282° |
| 2026-04-21 15:36 | 20.73454 | 70.54875 | 35866 ft | 450 kts | 282° |
| 2026-04-21 15:37 | 20.74575 | 70.48311 | 35873 ft | 449 kts | 282° |
| 2026-04-21 15:37 | 20.75692 | 70.41753 | 35881 ft | 448 kts | 282° |
| 2026-04-21 15:38 | 20.76805 | 70.35204 | 35877 ft | 447 kts | 282° |
| 2026-04-21 15:38 | 20.77904 | 70.28724 | 35876 ft | 446 kts | 282° |
| 2026-04-21 15:39 | 20.79007 | 70.22204 | 35879 ft | 445 kts | 282° |
| 2026-04-21 15:39 | 20.80107 | 70.15688 | 35880 ft | 445 kts | 282° |
| 2026-04-21 15:40 | 20.81203 | 70.09181 | 35881 ft | 444 kts | 282° |
| 2026-04-21 15:40 | 20.82288 | 70.02722 | 35887 ft | 443 kts | 282° |
| 2026-04-21 15:41 | 20.83377 | 69.96225 | 35899 ft | 449 kts | 282° |
| 2026-04-21 15:41 | 20.84497 | 69.89540 | 35907 ft | 467 kts | 282° |
| 2026-04-21 15:42 | 20.85650 | 69.82630 | 35905 ft | 483 kts | 281° |
| 2026-04-21 15:42 | 20.86823 | 69.75570 | 35903 ft | 491 kts | 281° |
| 2026-04-21 15:43 | 20.88026 | 69.68305 | 35880 ft | 485 kts | 281° |
| 2026-04-21 15:43 | 20.89174 | 69.61358 | 35886 ft | 481 kts | 281° |
| 2026-04-21 15:44 | 20.90348 | 69.54246 | 35896 ft | 481 kts | 281° |
| 2026-04-21 15:44 | 20.91510 | 69.47189 | 35887 ft | 481 kts | 281° |
| 2026-04-21 15:45 | 20.92667 | 69.40138 | 35898 ft | 482 kts | 281° |
| 2026-04-21 15:45 | 20.93830 | 69.33034 | 36263 ft | 484 kts | 281° |
| 2026-04-21 15:46 | 20.94402 | 69.29534 | 36678 ft | 480 kts | 281° |
| 2026-04-21 15:46 | 20.94980 | 69.25984 | 37146 ft | 476 kts | 281° |
| 2026-04-21 15:46 | 20.95539 | 69.22556 | 37587 ft | 472 kts | 281° |
| 2026-04-21 15:46 | 20.96102 | 69.19098 | 37940 ft | 471 kts | 281° |
| 2026-04-21 15:47 | 20.97329 | 69.12302 | 37891 ft | 471 kts | 286° |
| 2026-04-21 15:47 | 20.99565 | 69.05681 | 37893 ft | 462 kts | 295° |
| 2026-04-21 15:48 | 21.02215 | 68.99442 | 37888 ft | 461 kts | 295° |
| 2026-04-21 15:48 | 21.04851 | 68.93250 | 37898 ft | 460 kts | 295° |
| 2026-04-21 15:49 | 21.07445 | 68.87081 | 37898 ft | 460 kts | 295° |
| 2026-04-21 15:49 | 21.10080 | 68.80768 | 37901 ft | 460 kts | 295° |
| 2026-04-21 15:50 | 21.12671 | 68.74541 | 37900 ft | 460 kts | 295° |
| 2026-04-21 15:50 | 21.15228 | 68.68389 | 37898 ft | 461 kts | 295° |
| 2026-04-21 15:51 | 21.17885 | 68.61992 | 37897 ft | 461 kts | 295° |
| 2026-04-21 15:51 | 21.20475 | 68.55747 | 37897 ft | 462 kts | 295° |
| 2026-04-21 15:52 | 21.23079 | 68.49464 | 37897 ft | 462 kts | 295° |
| 2026-04-21 15:52 | 21.25682 | 68.43173 | 37899 ft | 463 kts | 294° |
| 2026-04-21 15:53 | 21.28287 | 68.36869 | 37898 ft | 463 kts | 294° |
| 2026-04-21 15:53 | 21.30889 | 68.30567 | 37897 ft | 463 kts | 294° |
| 2026-04-21 15:54 | 21.33470 | 68.24306 | 37896 ft | 463 kts | 294° |
| 2026-04-21 15:54 | 21.36064 | 68.18004 | 37899 ft | 463 kts | 294° |
| 2026-04-21 15:55 | 21.38662 | 68.11687 | 37894 ft | 463 kts | 294° |
| 2026-04-21 15:55 | 21.41159 | 68.05607 | 37897 ft | 462 kts | 294° |
| 2026-04-21 15:56 | 21.43777 | 67.99224 | 37897 ft | 462 kts | 294° |
| 2026-04-21 15:56 | 21.46348 | 67.92949 | 37898 ft | 462 kts | 294° |
| 2026-04-21 15:57 | 21.48911 | 67.86685 | 37897 ft | 462 kts | 294° |
| 2026-04-21 15:57 | 21.51494 | 67.80366 | 37898 ft | 462 kts | 294° |
| 2026-04-21 15:58 | 21.54099 | 67.73983 | 37897 ft | 462 kts | 294° |
| 2026-04-21 15:58 | 21.56680 | 67.67648 | 37896 ft | 462 kts | 294° |
| 2026-04-21 15:59 | 21.59256 | 67.61320 | 37897 ft | 462 kts | 294° |
| 2026-04-21 15:59 | 21.61798 | 67.55067 | 37896 ft | 463 kts | 294° |
| 2026-04-21 16:00 | 21.64408 | 67.48639 | 37897 ft | 463 kts | 294° |
| 2026-04-21 16:00 | 21.66966 | 67.42330 | 37894 ft | 463 kts | 294° |
| 2026-04-21 16:01 | 21.69537 | 67.35982 | 37898 ft | 463 kts | 294° |
| 2026-04-21 16:01 | 21.72107 | 67.29629 | 37897 ft | 463 kts | 294° |
| 2026-04-21 16:02 | 21.74666 | 67.23292 | 37895 ft | 463 kts | 294° |
| 2026-04-21 16:02 | 21.77222 | 67.16957 | 37896 ft | 463 kts | 294° |
| 2026-04-21 16:03 | 21.79780 | 67.10607 | 37892 ft | 462 kts | 294° |
| 2026-04-21 16:03 | 21.82338 | 67.04249 | 37886 ft | 462 kts | 293° |
| 2026-04-21 16:04 | 21.84883 | 66.97914 | 37894 ft | 461 kts | 293° |
| 2026-04-21 16:04 | 21.87426 | 66.91579 | 37903 ft | 460 kts | 293° |
| 2026-04-21 16:05 | 21.89950 | 66.85281 | 37895 ft | 460 kts | 293° |
| 2026-04-21 16:05 | 21.92479 | 66.78961 | 37893 ft | 459 kts | 293° |
| 2026-04-21 16:06 | 21.95010 | 66.72630 | 37888 ft | 459 kts | 293° |
| 2026-04-21 16:06 | 21.97530 | 66.66316 | 37890 ft | 459 kts | 293° |
| 2026-04-21 16:07 | 22.00051 | 66.59990 | 37888 ft | 459 kts | 293° |
| 2026-04-21 16:07 | 22.02530 | 66.53765 | 37894 ft | 459 kts | 293° |
| 2026-04-21 16:08 | 22.06330 | 66.44206 | 37889 ft | 460 kts | 293° |
| 2026-04-21 16:09 | 22.08852 | 66.37851 | 37887 ft | 460 kts | 293° |
| 2026-04-21 16:09 | 22.11353 | 66.31542 | 37887 ft | 461 kts | 292° |
| 2026-04-21 16:10 | 22.13873 | 66.25173 | 37884 ft | 461 kts | 292° |
| 2026-04-21 16:10 | 22.16390 | 66.18804 | 37888 ft | 461 kts | 292° |
| 2026-04-21 16:11 | 22.18906 | 66.12427 | 37887 ft | 461 kts | 292° |
| 2026-04-21 16:11 | 22.21417 | 66.06056 | 37886 ft | 461 kts | 292° |
| 2026-04-21 16:12 | 22.23504 | 66.00754 | 37886 ft | 461 kts | 292° |
| 2026-04-21 16:12 | 22.26434 | 65.93302 | 37888 ft | 461 kts | 292° |
| 2026-04-21 16:13 | 22.28921 | 65.86965 | 37886 ft | 461 kts | 292° |
| 2026-04-21 16:13 | 22.31425 | 65.80578 | 37886 ft | 461 kts | 292° |
| 2026-04-21 16:14 | 22.33926 | 65.74188 | 37884 ft | 461 kts | 292° |
| 2026-04-21 16:14 | 22.34755 | 65.72068 | 37884 ft | 461 kts | 292° |
| 2026-04-21 16:15 | 22.36455 | 65.67719 | 37871 ft | 461 kts | 292° |
| 2026-04-21 16:15 | 22.38529 | 65.62406 | 37891 ft | 462 kts | 292° |
| 2026-04-21 16:16 | 22.41435 | 65.54953 | 37887 ft | 462 kts | 292° |
| 2026-04-21 16:16 | 22.43930 | 65.48545 | 37871 ft | 462 kts | 292° |
| 2026-04-21 16:17 | 22.46428 | 65.42120 | 37891 ft | 463 kts | 292° |
| 2026-04-21 16:17 | 22.48910 | 65.35729 | 37890 ft | 463 kts | 292° |
| 2026-04-21 16:18 | 22.51403 | 65.29297 | 37888 ft | 463 kts | 292° |
| 2026-04-21 16:18 | 22.53894 | 65.22865 | 37873 ft | 464 kts | 292° |
| 2026-04-21 16:19 | 22.55786 | 65.17973 | 37888 ft | 464 kts | 292° |
| 2026-04-21 16:19 | 22.57852 | 65.12623 | 37890 ft | 464 kts | 292° |
| 2026-04-21 16:20 | 22.60747 | 65.05119 | 37874 ft | 464 kts | 292° |
| 2026-04-21 16:20 | 22.62819 | 64.99741 | 37877 ft | 465 kts | 292° |
| 2026-04-21 16:21 | 22.65305 | 64.93278 | 37885 ft | 465 kts | 293° |
| 2026-04-21 16:21 | 22.67790 | 64.86810 | 37882 ft | 465 kts | 293° |
| 2026-04-21 16:22 | 22.70269 | 64.80348 | 37866 ft | 465 kts | 293° |
| 2026-04-21 16:22 | 22.72730 | 64.73925 | 37885 ft | 464 kts | 293° |
| 2026-04-21 16:23 | 22.75170 | 64.67546 | 37887 ft | 464 kts | 293° |
| 2026-04-21 16:23 | 22.77633 | 64.61099 | 37880 ft | 464 kts | 293° |
| 2026-04-21 16:24 | 22.80137 | 64.54535 | 37869 ft | 465 kts | 293° |
| 2026-04-21 16:24 | 22.82595 | 64.48083 | 37878 ft | 465 kts | 293° |
| 2026-04-21 16:25 | 22.85061 | 64.41599 | 37881 ft | 465 kts | 293° |
| 2026-04-21 16:25 | 22.87525 | 64.35111 | 37880 ft | 465 kts | 293° |
| 2026-04-21 16:26 | 22.89993 | 64.28605 | 37874 ft | 466 kts | 293° |
| 2026-04-21 16:26 | 22.92448 | 64.22122 | 37863 ft | 467 kts | 293° |
| 2026-04-21 16:27 | 22.94921 | 64.15583 | 37882 ft | 467 kts | 293° |
| 2026-04-21 16:27 | 22.97373 | 64.09092 | 37883 ft | 468 kts | 293° |
| 2026-04-21 16:28 | 22.99840 | 64.02548 | 37874 ft | 468 kts | 293° |
| 2026-04-21 16:28 | 23.02310 | 63.95987 | 37861 ft | 469 kts | 293° |
| 2026-04-21 16:29 | 23.04731 | 63.89442 | 37867 ft | 469 kts | 290° |
| 2026-04-21 16:29 | 23.06311 | 63.82555 | 37862 ft | 471 kts | 279° |
| 2026-04-21 16:30 | 23.07058 | 63.75475 | 37870 ft | 472 kts | 277° |
| 2026-04-21 16:30 | 23.07739 | 63.68426 | 37873 ft | 472 kts | 277° |
| 2026-04-21 16:31 | 23.08446 | 63.61340 | 37874 ft | 472 kts | 277° |
| 2026-04-21 16:31 | 23.09174 | 63.54239 | 37872 ft | 472 kts | 277° |
| 2026-04-21 16:32 | 23.09906 | 63.47139 | 37872 ft | 472 kts | 277° |
| 2026-04-21 16:32 | 23.10630 | 63.40084 | 37864 ft | 472 kts | 277° |
| 2026-04-21 16:33 | 23.11355 | 63.32977 | 37870 ft | 472 kts | 277° |
| 2026-04-21 16:33 | 23.12075 | 63.25884 | 37876 ft | 472 kts | 277° |
| 2026-04-21 16:34 | 23.12788 | 63.18824 | 37866 ft | 473 kts | 277° |
| 2026-04-21 16:34 | 23.13503 | 63.11711 | 37870 ft | 473 kts | 277° |
| 2026-04-21 16:35 | 23.14215 | 63.04600 | 37873 ft | 473 kts | 277° |
| 2026-04-21 16:35 | 23.14924 | 62.97480 | 37866 ft | 473 kts | 277° |
| 2026-04-21 16:36 | 23.15626 | 62.90402 | 37874 ft | 474 kts | 277° |
| 2026-04-21 16:36 | 23.16331 | 62.83267 | 37874 ft | 474 kts | 277° |
| 2026-04-21 16:37 | 23.17028 | 62.76169 | 37876 ft | 474 kts | 277° |
| 2026-04-21 16:37 | 23.17727 | 62.69021 | 37856 ft | 475 kts | 277° |
| 2026-04-21 16:38 | 23.18423 | 62.61871 | 37872 ft | 475 kts | 277° |
| 2026-04-21 16:38 | 23.19116 | 62.54726 | 37875 ft | 475 kts | 277° |
| 2026-04-21 16:39 | 23.19801 | 62.47618 | 37872 ft | 475 kts | 278° |
| 2026-04-21 16:39 | 23.20488 | 62.40463 | 37862 ft | 475 kts | 278° |
| 2026-04-21 16:40 | 23.21172 | 62.33301 | 37854 ft | 475 kts | 278° |
| 2026-04-21 16:40 | 23.21847 | 62.26191 | 37867 ft | 475 kts | 278° |
| 2026-04-21 16:41 | 23.22523 | 62.19043 | 37862 ft | 475 kts | 278° |
| 2026-04-21 16:41 | 23.23196 | 62.11899 | 37862 ft | 474 kts | 278° |
| 2026-04-21 16:42 | 23.23865 | 62.04749 | 37863 ft | 474 kts | 278° |
| 2026-04-21 16:42 | 23.24526 | 61.97660 | 37860 ft | 474 kts | 278° |
| 2026-04-21 16:43 | 23.25188 | 61.90524 | 37861 ft | 473 kts | 278° |
| 2026-04-21 16:43 | 23.25845 | 61.83396 | 37862 ft | 473 kts | 278° |
| 2026-04-21 16:44 | 23.26495 | 61.76320 | 37859 ft | 473 kts | 278° |
| 2026-04-21 16:44 | 23.27147 | 61.69185 | 37860 ft | 472 kts | 278° |
| 2026-04-21 16:45 | 23.27794 | 61.62068 | 37854 ft | 472 kts | 278° |
| 2026-04-21 16:45 | 23.28433 | 61.55004 | 37852 ft | 471 kts | 277° |
| 2026-04-21 16:46 | 23.29072 | 61.47895 | 37857 ft | 471 kts | 277° |
| 2026-04-21 16:46 | 23.29708 | 61.40794 | 37852 ft | 471 kts | 277° |
| 2026-04-21 16:47 | 23.30335 | 61.33751 | 37850 ft | 470 kts | 277° |
| 2026-04-21 16:47 | 23.30963 | 61.26663 | 37851 ft | 469 kts | 277° |
| 2026-04-21 16:48 | 23.31587 | 61.19590 | 37850 ft | 469 kts | 277° |
| 2026-04-21 16:48 | 23.32333 | 61.12594 | 37850 ft | 467 kts | 279° |
| 2026-04-21 16:49 | 23.33265 | 61.05587 | 37852 ft | 467 kts | 280° |
| 2026-04-21 16:49 | 23.34181 | 60.98584 | 37853 ft | 466 kts | 279° |
| 2026-04-21 16:50 | 23.35055 | 60.91635 | 37850 ft | 466 kts | 279° |
| 2026-04-21 16:50 | 23.35924 | 60.84633 | 37847 ft | 465 kts | 279° |
| 2026-04-21 16:51 | 23.36791 | 60.77641 | 37848 ft | 465 kts | 279° |
| 2026-04-21 16:51 | 23.37651 | 60.70687 | 37845 ft | 465 kts | 278° |
| 2026-04-21 16:52 | 23.38833 | 60.63772 | 37849 ft | 464 kts | 286° |
| 2026-04-21 16:52 | 23.41028 | 60.57169 | 37852 ft | 463 kts | 292° |
| 2026-04-21 16:53 | 23.43447 | 60.50700 | 37845 ft | 464 kts | 292° |
| 2026-04-21 16:53 | 23.45873 | 60.44163 | 37845 ft | 464 kts | 292° |
| 2026-04-21 16:54 | 23.48253 | 60.37670 | 37840 ft | 464 kts | 292° |
| 2026-04-21 16:54 | 23.50640 | 60.31118 | 37842 ft | 464 kts | 292° |
| 2026-04-21 16:55 | 23.53016 | 60.24579 | 37840 ft | 464 kts | 292° |
| 2026-04-21 16:55 | 23.55384 | 60.18059 | 37841 ft | 464 kts | 292° |
| 2026-04-21 16:56 | 23.57766 | 60.11491 | 37842 ft | 464 kts | 292° |
| 2026-04-21 16:56 | 23.60116 | 60.05000 | 37841 ft | 464 kts | 292° |
| 2026-04-21 16:57 | 23.62466 | 59.98502 | 37839 ft | 463 kts | 292° |
| 2026-04-21 16:57 | 23.64829 | 59.91956 | 37838 ft | 463 kts | 292° |
| 2026-04-21 16:58 | 23.67183 | 59.85424 | 37839 ft | 462 kts | 293° |
| 2026-04-21 16:58 | 23.69519 | 59.78934 | 37837 ft | 461 kts | 293° |
| 2026-04-21 16:59 | 23.71865 | 59.72406 | 37840 ft | 460 kts | 293° |
| 2026-04-21 16:59 | 23.74193 | 59.65919 | 37842 ft | 460 kts | 293° |
| 2026-04-21 17:00 | 23.76527 | 59.59405 | 37841 ft | 459 kts | 293° |
| 2026-04-21 17:00 | 23.78359 | 59.54285 | 37841 ft | 458 kts | 293° |
| 2026-04-21 17:01 | 23.81055 | 59.46738 | 37839 ft | 456 kts | 294° |
| 2026-04-21 17:01 | 23.83342 | 59.40326 | 37838 ft | 455 kts | 294° |
| 2026-04-21 17:02 | 23.85640 | 59.33874 | 37837 ft | 454 kts | 294° |
| 2026-04-21 17:02 | 23.87927 | 59.27440 | 37841 ft | 452 kts | 294° |
| 2026-04-21 17:03 | 23.90188 | 59.21072 | 37838 ft | 451 kts | 294° |
| 2026-04-21 17:03 | 23.92456 | 59.14677 | 37839 ft | 450 kts | 294° |
| 2026-04-21 17:04 | 23.94607 | 59.08282 | 37838 ft | 450 kts | 292° |
| 2026-04-21 17:04 | 23.96656 | 59.01810 | 37839 ft | 448 kts | 292° |
| 2026-04-21 17:05 | 23.98698 | 58.95379 | 37835 ft | 447 kts | 292° |
| 2026-04-21 17:05 | 24.00752 | 58.88956 | 37832 ft | 446 kts | 292° |
| 2026-04-21 17:06 | 24.02790 | 58.82595 | 37837 ft | 445 kts | 292° |
| 2026-04-21 17:06 | 24.04485 | 58.77294 | 37835 ft | 444 kts | 292° |
| 2026-04-21 17:07 | 24.06519 | 58.70923 | 37839 ft | 442 kts | 292° |
| 2026-04-21 17:07 | 24.08545 | 58.64564 | 37836 ft | 441 kts | 292° |
| 2026-04-21 17:08 | 24.10552 | 58.58256 | 37837 ft | 440 kts | 292° |
| 2026-04-21 17:08 | 24.12563 | 58.51913 | 37839 ft | 439 kts | 292° |
| 2026-04-21 17:09 | 24.15549 | 58.42469 | 37839 ft | 438 kts | 292° |
| 2026-04-21 17:09 | 24.17541 | 58.36156 | 37837 ft | 437 kts | 291° |
| 2026-04-21 17:10 | 24.19529 | 58.29844 | 37843 ft | 437 kts | 291° |
| 2026-04-21 17:10 | 24.21498 | 58.23585 | 37843 ft | 436 kts | 291° |
| 2026-04-21 17:11 | 24.23474 | 58.17292 | 37844 ft | 436 kts | 291° |
| 2026-04-21 17:11 | 24.25446 | 58.11002 | 37842 ft | 436 kts | 291° |
| 2026-04-21 17:12 | 24.27414 | 58.04712 | 37846 ft | 436 kts | 291° |
| 2026-04-21 17:12 | 24.29365 | 57.98470 | 37844 ft | 435 kts | 291° |
| 2026-04-21 17:13 | 24.31324 | 57.92188 | 37844 ft | 435 kts | 291° |
| 2026-04-21 17:13 | 24.33246 | 57.86017 | 37845 ft | 435 kts | 291° |
| 2026-04-21 17:14 | 24.35230 | 57.79636 | 37845 ft | 434 kts | 291° |
| 2026-04-21 17:14 | 24.37177 | 57.73364 | 37843 ft | 434 kts | 291° |
| 2026-04-21 17:15 | 24.39107 | 57.67137 | 37845 ft | 433 kts | 291° |
| 2026-04-21 17:15 | 24.41047 | 57.60869 | 37847 ft | 432 kts | 291° |
| 2026-04-21 17:16 | 24.42964 | 57.54662 | 37849 ft | 432 kts | 291° |
| 2026-04-21 17:16 | 24.44892 | 57.48414 | 37846 ft | 431 kts | 291° |
| 2026-04-21 17:17 | 24.46780 | 57.42300 | 37849 ft | 430 kts | 291° |
| 2026-04-21 17:17 | 24.48700 | 57.36076 | 37272 ft | 433 kts | 290° |
| 2026-04-21 17:18 | 24.49662 | 57.32948 | 36743 ft | 430 kts | 290° |
| 2026-04-21 17:18 | 24.50608 | 57.29872 | 35987 ft | 432 kts | 290° |
| 2026-04-21 17:18 | 24.51602 | 57.26638 | 35199 ft | 435 kts | 290° |
| 2026-04-21 17:18 | 24.52564 | 57.23507 | 34334 ft | 441 kts | 289° |
| 2026-04-21 17:19 | 24.53558 | 57.20269 | 33412 ft | 447 kts | 289° |
| 2026-04-21 17:19 | 24.54565 | 57.17052 | 32391 ft | 456 kts | 290° |
| 2026-04-21 17:19 | 24.55771 | 57.13766 | 31455 ft | 466 kts | 292° |
| 2026-04-21 17:19 | 24.57060 | 57.10495 | 30715 ft | 467 kts | 292° |
| 2026-04-21 17:20 | 24.58376 | 57.07229 | 30030 ft | 465 kts | 292° |
| 2026-04-21 17:20 | 24.59687 | 57.03975 | 29262 ft | 463 kts | 292° |
| 2026-04-21 17:20 | 24.60979 | 57.00738 | 28555 ft | 460 kts | 292° |
| 2026-04-21 17:20 | 24.62234 | 56.97564 | 27870 ft | 457 kts | 292° |
| 2026-04-21 17:21 | 24.63488 | 56.94371 | 27212 ft | 453 kts | 292° |
| 2026-04-21 17:21 | 24.64713 | 56.91235 | 26563 ft | 449 kts | 292° |
| 2026-04-21 17:21 | 24.65953 | 56.88051 | 25923 ft | 446 kts | 292° |
| 2026-04-21 17:21 | 24.67169 | 56.84926 | 25281 ft | 442 kts | 292° |
| 2026-04-21 17:22 | 24.68378 | 56.81816 | 24638 ft | 440 kts | 292° |
| 2026-04-21 17:22 | 24.69577 | 56.78731 | 24008 ft | 437 kts | 292° |
| 2026-04-21 17:22 | 24.70755 | 56.75698 | 23371 ft | 434 kts | 292° |
| 2026-04-21 17:22 | 24.71937 | 56.72651 | 22651 ft | 431 kts | 292° |
| 2026-04-21 17:23 | 24.73112 | 56.69624 | 22016 ft | 427 kts | 292° |
| 2026-04-21 17:23 | 24.74268 | 56.66643 | 21412 ft | 423 kts | 292° |
| 2026-04-21 17:23 | 24.75418 | 56.63675 | 20814 ft | 419 kts | 292° |
| 2026-04-21 17:23 | 24.76555 | 56.60737 | 20223 ft | 415 kts | 292° |
| 2026-04-21 17:24 | 24.77639 | 56.57937 | 19668 ft | 412 kts | 292° |
| 2026-04-21 17:24 | 24.78802 | 56.54928 | 19064 ft | 409 kts | 292° |
| 2026-04-21 17:24 | 24.79917 | 56.52044 | 18478 ft | 407 kts | 292° |
| 2026-04-21 17:24 | 24.81010 | 56.49213 | 17869 ft | 406 kts | 292° |
| 2026-04-21 17:25 | 24.82110 | 56.46362 | 17245 ft | 403 kts | 292° |
| 2026-04-21 17:25 | 24.83199 | 56.43537 | 16662 ft | 399 kts | 293° |
| 2026-04-21 17:25 | 24.84283 | 56.40726 | 16091 ft | 396 kts | 293° |
| 2026-04-21 17:25 | 24.85355 | 56.37942 | 15530 ft | 392 kts | 293° |
| 2026-04-21 17:26 | 24.86419 | 56.35175 | 14982 ft | 389 kts | 293° |
| 2026-04-21 17:26 | 24.87473 | 56.32437 | 14441 ft | 387 kts | 293° |
| 2026-04-21 17:26 | 24.88509 | 56.29744 | 13883 ft | 385 kts | 291° |
| 2026-04-21 17:26 | 24.89550 | 56.27038 | 13294 ft | 383 kts | 291° |
| 2026-04-21 17:27 | 24.90556 | 56.24417 | 12918 ft | 376 kts | 291° |
| 2026-04-21 17:27 | 24.91550 | 56.21828 | 12756 ft | 363 kts | 291° |
| 2026-04-21 17:27 | 24.92543 | 56.19240 | 12587 ft | 351 kts | 291° |
| 2026-04-21 17:27 | 24.93478 | 56.16799 | 12434 ft | 339 kts | 291° |
| 2026-04-21 17:28 | 24.94381 | 56.14440 | 12289 ft | 328 kts | 291° |
| 2026-04-21 17:28 | 24.95255 | 56.12156 | 12159 ft | 318 kts | 291° |
| 2026-04-21 17:28 | 24.96089 | 56.09978 | 12036 ft | 308 kts | 291° |
| 2026-04-21 17:28 | 24.96911 | 56.07828 | 11883 ft | 297 kts | 291° |
| 2026-04-21 17:29 | 24.97936 | 56.05901 | 11780 ft | 288 kts | 307° |
| 2026-04-21 17:29 | 24.99278 | 56.04298 | 11646 ft | 280 kts | 310° |
| 2026-04-21 17:29 | 25.00602 | 56.02751 | 11477 ft | 274 kts | 310° |
| 2026-04-21 17:29 | 25.01869 | 56.01247 | 11336 ft | 272 kts | 309° |
| 2026-04-21 17:30 | 25.03138 | 55.99723 | 11185 ft | 272 kts | 309° |
| 2026-04-21 17:30 | 25.04437 | 55.98152 | 11062 ft | 272 kts | 309° |
| 2026-04-21 17:30 | 25.05713 | 55.96606 | 10919 ft | 273 kts | 309° |
| 2026-04-21 17:30 | 25.06986 | 55.95056 | 10775 ft | 272 kts | 309° |
| 2026-04-21 17:31 | 25.08253 | 55.93502 | 10651 ft | 272 kts | 309° |
| 2026-04-21 17:31 | 25.09503 | 55.91967 | 10504 ft | 271 kts | 309° |
| 2026-04-21 17:31 | 25.10763 | 55.90419 | 10392 ft | 271 kts | 309° |
| 2026-04-21 17:31 | 25.12026 | 55.88868 | 10252 ft | 270 kts | 309° |
| 2026-04-21 17:32 | 25.12862 | 55.87842 | 10165 ft | 270 kts | 309° |
| 2026-04-21 17:32 | 25.14537 | 55.85784 | 9995 ft | 269 kts | 309° |
| 2026-04-21 17:32 | 25.15774 | 55.84242 | 9809 ft | 267 kts | 306° |
| 2026-04-21 17:32 | 25.16134 | 55.83706 | 9706 ft | 268 kts | 302° |
| 2026-04-21 17:33 | 25.16662 | 55.82798 | 9572 ft | 267 kts | 299° |
| 2026-04-21 17:33 | 25.17594 | 55.81067 | 9301 ft | 267 kts | 298° |
| 2026-04-21 17:33 | 25.18546 | 55.79301 | 9018 ft | 267 kts | 299° |
| 2026-04-21 17:33 | 25.19502 | 55.77545 | 8737 ft | 266 kts | 300° |
| 2026-04-21 17:34 | 25.20462 | 55.75798 | 8459 ft | 265 kts | 300° |
| 2026-04-21 17:34 | 25.21409 | 55.74088 | 8194 ft | 264 kts | 300° |
| 2026-04-21 17:34 | 25.22370 | 55.72358 | 7920 ft | 263 kts | 300° |
| 2026-04-21 17:34 | 25.23324 | 55.70644 | 7695 ft | 260 kts | 300° |
| 2026-04-21 17:35 | 25.24234 | 55.69012 | 7483 ft | 256 kts | 298° |
| 2026-04-21 17:35 | 25.24764 | 55.67127 | 7255 ft | 250 kts | 269° |
| 2026-04-21 17:35 | 25.24369 | 55.65244 | 7090 ft | 257 kts | 242° |
| 2026-04-21 17:35 | 25.23262 | 55.63693 | 6875 ft | 261 kts | 217° |
| 2026-04-21 17:36 | 25.21629 | 55.62848 | 6658 ft | 262 kts | 189° |
| 2026-04-21 17:36 | 25.19829 | 55.62987 | 6452 ft | 263 kts | 160° |
| 2026-04-21 17:36 | 25.18293 | 55.64017 | 6246 ft | 264 kts | 135° |
| 2026-04-21 17:36 | 25.17230 | 55.65642 | 6027 ft | 260 kts | 121° |
| 2026-04-21 17:37 | 25.16288 | 55.67355 | 5809 ft | 261 kts | 121° |
| 2026-04-21 17:37 | 25.15370 | 55.69038 | 5612 ft | 262 kts | 121° |
| 2026-04-21 17:37 | 25.14722 | 55.70212 | 5468 ft | 260 kts | 121° |
| 2026-04-21 17:37 | 25.13074 | 55.72018 | 5158 ft | 248 kts | 155° |
| 2026-04-21 17:38 | 25.11457 | 55.72332 | 4941 ft | 229 kts | 183° |
| 2026-04-21 17:38 | 25.09926 | 55.71967 | 4779 ft | 224 kts | 202° |
| 2026-04-21 17:38 | 25.08590 | 55.71108 | 4633 ft | 221 kts | 223° |
| 2026-04-21 17:38 | 25.07806 | 55.69689 | 4433 ft | 223 kts | 256° |
| 2026-04-21 17:39 | 25.07831 | 55.67999 | 4266 ft | 223 kts | 287° |
| 2026-04-21 17:39 | 25.08529 | 55.66473 | 4090 ft | 223 kts | 304° |
| 2026-04-21 17:39 | 25.09387 | 55.65032 | 3910 ft | 226 kts | 304° |
| 2026-04-21 17:39 | 25.10241 | 55.63567 | 3739 ft | 226 kts | 303° |
| 2026-04-21 17:40 | 25.11068 | 55.62104 | 3544 ft | 227 kts | 303° |
| 2026-04-21 17:40 | 25.11892 | 55.60626 | 3343 ft | 224 kts | 303° |
| 2026-04-21 17:40 | 25.12693 | 55.59181 | 3146 ft | 216 kts | 303° |
| 2026-04-21 17:40 | 25.13465 | 55.57786 | 2991 ft | 213 kts | 303° |
| 2026-04-21 17:41 | 25.14236 | 55.56398 | 2808 ft | 210 kts | 303° |
| 2026-04-21 17:41 | 25.14982 | 55.55050 | 2637 ft | 202 kts | 304° |
| 2026-04-21 17:41 | 25.15710 | 55.53737 | 2476 ft | 197 kts | 304° |
| 2026-04-21 17:41 | 25.16402 | 55.52486 | 2331 ft | 190 kts | 304° |
| 2026-04-21 17:42 | 25.17087 | 55.51249 | 2161 ft | 188 kts | 305° |
| 2026-04-21 17:42 | 25.17774 | 55.50011 | 2022 ft | 188 kts | 305° |
| 2026-04-21 17:42 | 25.18454 | 55.48783 | 1831 ft | 187 kts | 305° |
| 2026-04-21 17:42 | 25.19123 | 55.47572 | 1589 ft | 178 kts | 305° |
| 2026-04-21 17:43 | 25.19727 | 55.46480 | 1354 ft | 161 kts | 306° |
| 2026-04-21 17:43 | 25.20286 | 55.45470 | 1130 ft | 150 kts | 306° |
| 2026-04-21 17:43 | 25.20827 | 55.44497 | 978 ft | 146 kts | 304° |
| 2026-04-21 17:43 | 25.21339 | 55.43568 | 914 ft | 140 kts | 305° |
| 2026-04-21 17:44 | 25.21865 | 55.42626 | 758 ft | 147 kts | 304° |
| 2026-04-21 17:44 | 25.22387 | 55.41675 | 545 ft | 141 kts | 303° |
| 2026-04-21 17:44 | 25.22883 | 55.40775 | 368 ft | 135 kts | 302° |
| 2026-04-21 17:44 | 25.23380 | 55.39885 | 221 ft | 138 kts | 303° |
| 2026-04-21 17:45 | 25.23893 | 55.38963 | 92 ft | 141 kts | 302° |
| 2026-04-21 17:45 | 25.24327 | 55.38169 | 47 ft | 80 kts | 301° |
| 2026-04-21 17:45 | 25.24519 | 55.37826 | 46 ft | 42 kts | 301° |
| 2026-04-21 17:45 | 25.24614 | 55.37614 | 42 ft | 20 kts | 274° |
| 2026-04-21 17:46 | 25.24620 | 55.37520 | 41 ft | 12 kts | 274° |
| 2026-04-21 17:46 | 25.24624 | 55.37402 | 39 ft | 17 kts | 272° |
| 2026-04-21 17:46 | 25.24636 | 55.37262 | 35 ft | 19 kts | 286° |
| 2026-04-21 17:46 | 25.24698 | 55.37141 | 33 ft | 17 kts | 302° |
| 2026-04-21 17:47 | 25.24759 | 55.37031 | 31 ft | 16 kts | 301° |
| 2026-04-21 17:47 | 25.24818 | 55.36922 | 29 ft | 17 kts | 301° |
| 2026-04-21 17:47 | 25.24863 | 55.36799 | 28 ft | 17 kts | 282° |
| 2026-04-21 17:47 | 25.24892 | 55.36674 | 27 ft | 13 kts | 291° |
| 2026-04-21 17:48 | 25.24918 | 55.36622 | 27 ft | 10 kts | 300° |
| 2026-04-21 17:48 | 25.24872 | 55.36555 | 27 ft | 10 kts | 192° |
| 2026-04-21 17:48 | 25.24820 | 55.36532 | 27 ft | 6 kts | 209° |
| 2026-04-21 17:48 | 25.24790 | 55.36512 | 27 ft | 3 kts | 213° |
| 2026-04-21 17:49 | 25.24769 | 55.36498 | 27 ft | 0 kts | 212° |